<?xml version="1.0" encoding="UTF-8" standalone="no" ?>
<gpx xmlns="http://www.topografix.com/GPX/1/1" xmlns:xsi="http://www.w3.org/2001/XMLSchema-instance" xsi:schemaLocation="http://www.topografix.com/GPX/1/1 http://www.topografix.com/GPX/1/1/gpx.xsd" version="1.1" creator="VisuGPX - https://www.visugpx.com">
  <metadata>
    <name>83-D-Draguignan   </name>
    <desc><![CDATA[83-D-Draguignan : le Malmont    ]]></desc>
  </metadata>
  <trk>
    <name><![CDATA[Draguignan Malmont 9 déc. 2018]]></name>
    <cmt><![CDATA[09:28:23]]></cmt>
    <desc><![CDATA[comment ...]]></desc>
    <trkseg>
      <trkpt lat="43.53949" lon="6.46209">
        <ele>185</ele>
        <time>2018-12-09T08:28:23Z</time>
      </trkpt>
      <trkpt lat="43.53949" lon="6.4621">
        <ele>184</ele>
        <time>2018-12-09T08:28:24Z</time>
      </trkpt>
      <trkpt lat="43.53945" lon="6.46231">
        <ele>187</ele>
        <time>2018-12-09T08:28:41Z</time>
      </trkpt>
      <trkpt lat="43.53937" lon="6.46256">
        <ele>189</ele>
        <time>2018-12-09T08:28:59Z</time>
      </trkpt>
      <trkpt lat="43.53937" lon="6.46266">
        <ele>190</ele>
        <time>2018-12-09T08:29:06Z</time>
      </trkpt>
      <trkpt lat="43.53933" lon="6.46281">
        <ele>191</ele>
        <time>2018-12-09T08:29:18Z</time>
      </trkpt>
      <trkpt lat="43.53928" lon="6.46294">
        <ele>195</ele>
        <time>2018-12-09T08:29:30Z</time>
      </trkpt>
      <trkpt lat="43.53933" lon="6.46307">
        <ele>194</ele>
        <time>2018-12-09T08:29:37Z</time>
      </trkpt>
      <trkpt lat="43.53941" lon="6.46321">
        <ele>192</ele>
        <time>2018-12-09T08:29:48Z</time>
      </trkpt>
      <trkpt lat="43.53954" lon="6.46343">
        <ele>191</ele>
        <time>2018-12-09T08:30:06Z</time>
      </trkpt>
      <trkpt lat="43.53964" lon="6.46347">
        <ele>191</ele>
        <time>2018-12-09T08:30:14Z</time>
      </trkpt>
      <trkpt lat="43.53991" lon="6.46375">
        <ele>192</ele>
        <time>2018-12-09T08:30:43Z</time>
      </trkpt>
      <trkpt lat="43.54009" lon="6.46401">
        <ele>195</ele>
        <time>2018-12-09T08:31:04Z</time>
      </trkpt>
      <trkpt lat="43.54022" lon="6.46401">
        <ele>199</ele>
        <time>2018-12-09T08:31:15Z</time>
      </trkpt>
      <trkpt lat="43.54032" lon="6.46413">
        <ele>202</ele>
        <time>2018-12-09T08:31:25Z</time>
      </trkpt>
      <trkpt lat="43.54042" lon="6.46422">
        <ele>206</ele>
        <time>2018-12-09T08:31:36Z</time>
      </trkpt>
      <trkpt lat="43.54053" lon="6.46429">
        <ele>209</ele>
        <time>2018-12-09T08:31:46Z</time>
      </trkpt>
      <trkpt lat="43.54061" lon="6.46441">
        <ele>213</ele>
        <time>2018-12-09T08:31:56Z</time>
      </trkpt>
      <trkpt lat="43.54074" lon="6.46449">
        <ele>215</ele>
        <time>2018-12-09T08:32:09Z</time>
      </trkpt>
      <trkpt lat="43.54082" lon="6.46462">
        <ele>213</ele>
        <time>2018-12-09T08:32:17Z</time>
      </trkpt>
      <trkpt lat="43.54091" lon="6.46466">
        <ele>210</ele>
        <time>2018-12-09T08:32:28Z</time>
      </trkpt>
      <trkpt lat="43.541" lon="6.46477">
        <ele>207</ele>
        <time>2018-12-09T08:32:40Z</time>
      </trkpt>
      <trkpt lat="43.54114" lon="6.46474">
        <ele>220</ele>
        <time>2018-12-09T08:34:36Z</time>
      </trkpt>
      <trkpt lat="43.54123" lon="6.46486">
        <ele>211</ele>
        <time>2018-12-09T08:34:41Z</time>
      </trkpt>
      <trkpt lat="43.54133" lon="6.46493">
        <ele>206</ele>
        <time>2018-12-09T08:34:49Z</time>
      </trkpt>
      <trkpt lat="43.54142" lon="6.46502">
        <ele>201</ele>
        <time>2018-12-09T08:34:56Z</time>
      </trkpt>
      <trkpt lat="43.54149" lon="6.4651">
        <ele>201</ele>
        <time>2018-12-09T08:35:02Z</time>
      </trkpt>
      <trkpt lat="43.54158" lon="6.46508">
        <ele>200</ele>
        <time>2018-12-09T08:35:08Z</time>
      </trkpt>
      <trkpt lat="43.54166" lon="6.46505">
        <ele>200</ele>
        <time>2018-12-09T08:35:15Z</time>
      </trkpt>
      <trkpt lat="43.54171" lon="6.46495">
        <ele>200</ele>
        <time>2018-12-09T08:35:21Z</time>
      </trkpt>
      <trkpt lat="43.54176" lon="6.46475">
        <ele>202</ele>
        <time>2018-12-09T08:35:32Z</time>
      </trkpt>
      <trkpt lat="43.54177" lon="6.46465">
        <ele>203</ele>
        <time>2018-12-09T08:35:38Z</time>
      </trkpt>
      <trkpt lat="43.54177" lon="6.46456">
        <ele>206</ele>
        <time>2018-12-09T08:36:04Z</time>
      </trkpt>
      <trkpt lat="43.54177" lon="6.46445">
        <ele>207</ele>
        <time>2018-12-09T08:36:13Z</time>
      </trkpt>
      <trkpt lat="43.54178" lon="6.46431">
        <ele>206</ele>
        <time>2018-12-09T08:36:22Z</time>
      </trkpt>
      <trkpt lat="43.54177" lon="6.46419">
        <ele>206</ele>
        <time>2018-12-09T08:36:31Z</time>
      </trkpt>
      <trkpt lat="43.54177" lon="6.46387">
        <ele>207</ele>
        <time>2018-12-09T08:36:55Z</time>
      </trkpt>
      <trkpt lat="43.54183" lon="6.46377">
        <ele>208</ele>
        <time>2018-12-09T08:37:08Z</time>
      </trkpt>
      <trkpt lat="43.54191" lon="6.46367">
        <ele>213</ele>
        <time>2018-12-09T08:37:22Z</time>
      </trkpt>
      <trkpt lat="43.542" lon="6.46363">
        <ele>216</ele>
        <time>2018-12-09T08:37:32Z</time>
      </trkpt>
      <trkpt lat="43.5421" lon="6.46359">
        <ele>217</ele>
        <time>2018-12-09T08:37:42Z</time>
      </trkpt>
      <trkpt lat="43.5422" lon="6.46357">
        <ele>216</ele>
        <time>2018-12-09T08:37:53Z</time>
      </trkpt>
      <trkpt lat="43.54232" lon="6.4635">
        <ele>218</ele>
        <time>2018-12-09T08:38:05Z</time>
      </trkpt>
      <trkpt lat="43.54245" lon="6.46348">
        <ele>221</ele>
        <time>2018-12-09T08:38:14Z</time>
      </trkpt>
      <trkpt lat="43.54256" lon="6.46342">
        <ele>222</ele>
        <time>2018-12-09T08:38:25Z</time>
      </trkpt>
      <trkpt lat="43.54266" lon="6.4634">
        <ele>216</ele>
        <time>2018-12-09T08:38:41Z</time>
      </trkpt>
      <trkpt lat="43.54274" lon="6.46334">
        <ele>215</ele>
        <time>2018-12-09T08:38:54Z</time>
      </trkpt>
      <trkpt lat="43.54281" lon="6.46323">
        <ele>212</ele>
        <time>2018-12-09T08:39:16Z</time>
      </trkpt>
      <trkpt lat="43.543" lon="6.46295">
        <ele>207</ele>
        <time>2018-12-09T08:39:38Z</time>
      </trkpt>
      <trkpt lat="43.5431" lon="6.46303">
        <ele>208</ele>
        <time>2018-12-09T08:39:58Z</time>
      </trkpt>
      <trkpt lat="43.54325" lon="6.46351">
        <ele>208</ele>
        <time>2018-12-09T08:40:30Z</time>
      </trkpt>
      <trkpt lat="43.54329" lon="6.46364">
        <ele>208</ele>
        <time>2018-12-09T08:40:40Z</time>
      </trkpt>
      <trkpt lat="43.54338" lon="6.46366">
        <ele>212</ele>
        <time>2018-12-09T08:40:53Z</time>
      </trkpt>
      <trkpt lat="43.54346" lon="6.46362">
        <ele>215</ele>
        <time>2018-12-09T08:41:02Z</time>
      </trkpt>
      <trkpt lat="43.54355" lon="6.4636">
        <ele>216</ele>
        <time>2018-12-09T08:41:13Z</time>
      </trkpt>
      <trkpt lat="43.54368" lon="6.46352">
        <ele>219</ele>
        <time>2018-12-09T08:41:43Z</time>
      </trkpt>
      <trkpt lat="43.54381" lon="6.4635">
        <ele>222</ele>
        <time>2018-12-09T08:42:02Z</time>
      </trkpt>
      <trkpt lat="43.54391" lon="6.46359">
        <ele>226</ele>
        <time>2018-12-09T08:42:18Z</time>
      </trkpt>
      <trkpt lat="43.54398" lon="6.46369">
        <ele>226</ele>
        <time>2018-12-09T08:42:29Z</time>
      </trkpt>
      <trkpt lat="43.54407" lon="6.46381">
        <ele>228</ele>
        <time>2018-12-09T08:42:44Z</time>
      </trkpt>
      <trkpt lat="43.54416" lon="6.46389">
        <ele>232</ele>
        <time>2018-12-09T08:42:55Z</time>
      </trkpt>
      <trkpt lat="43.54426" lon="6.46391">
        <ele>233</ele>
        <time>2018-12-09T08:43:06Z</time>
      </trkpt>
      <trkpt lat="43.54435" lon="6.46391">
        <ele>236</ele>
        <time>2018-12-09T08:43:16Z</time>
      </trkpt>
      <trkpt lat="43.54447" lon="6.46405">
        <ele>236</ele>
        <time>2018-12-09T08:43:31Z</time>
      </trkpt>
      <trkpt lat="43.54454" lon="6.4641">
        <ele>236</ele>
        <time>2018-12-09T08:43:38Z</time>
      </trkpt>
      <trkpt lat="43.54472" lon="6.46406">
        <ele>238</ele>
        <time>2018-12-09T08:43:54Z</time>
      </trkpt>
      <trkpt lat="43.5448" lon="6.46403">
        <ele>238</ele>
        <time>2018-12-09T08:44:00Z</time>
      </trkpt>
      <trkpt lat="43.54488" lon="6.46398">
        <ele>238</ele>
        <time>2018-12-09T08:44:07Z</time>
      </trkpt>
      <trkpt lat="43.54509" lon="6.46392">
        <ele>241</ele>
        <time>2018-12-09T08:44:28Z</time>
      </trkpt>
      <trkpt lat="43.54519" lon="6.46388">
        <ele>243</ele>
        <time>2018-12-09T08:44:36Z</time>
      </trkpt>
      <trkpt lat="43.54527" lon="6.46381">
        <ele>241</ele>
        <time>2018-12-09T08:44:42Z</time>
      </trkpt>
      <trkpt lat="43.54534" lon="6.46384">
        <ele>240</ele>
        <time>2018-12-09T08:44:51Z</time>
      </trkpt>
      <trkpt lat="43.54542" lon="6.46386">
        <ele>239</ele>
        <time>2018-12-09T08:44:58Z</time>
      </trkpt>
      <trkpt lat="43.54551" lon="6.46391">
        <ele>240</ele>
        <time>2018-12-09T08:45:06Z</time>
      </trkpt>
      <trkpt lat="43.54558" lon="6.46394">
        <ele>240</ele>
        <time>2018-12-09T08:45:12Z</time>
      </trkpt>
      <trkpt lat="43.54581" lon="6.4641">
        <ele>242</ele>
        <time>2018-12-09T08:45:35Z</time>
      </trkpt>
      <trkpt lat="43.54583" lon="6.4642">
        <ele>240</ele>
        <time>2018-12-09T08:45:45Z</time>
      </trkpt>
      <trkpt lat="43.5459" lon="6.46425">
        <ele>241</ele>
        <time>2018-12-09T08:45:51Z</time>
      </trkpt>
      <trkpt lat="43.54595" lon="6.46434">
        <ele>245</ele>
        <time>2018-12-09T08:46:03Z</time>
      </trkpt>
      <trkpt lat="43.54602" lon="6.4644">
        <ele>247</ele>
        <time>2018-12-09T08:46:36Z</time>
      </trkpt>
      <trkpt lat="43.54608" lon="6.46453">
        <ele>256</ele>
        <time>2018-12-09T08:49:26Z</time>
      </trkpt>
      <trkpt lat="43.54614" lon="6.46464">
        <ele>257</ele>
        <time>2018-12-09T08:49:40Z</time>
      </trkpt>
      <trkpt lat="43.5462" lon="6.46478">
        <ele>256</ele>
        <time>2018-12-09T08:49:53Z</time>
      </trkpt>
      <trkpt lat="43.54629" lon="6.46484">
        <ele>259</ele>
        <time>2018-12-09T08:50:10Z</time>
      </trkpt>
      <trkpt lat="43.54641" lon="6.46487">
        <ele>261</ele>
        <time>2018-12-09T08:50:23Z</time>
      </trkpt>
      <trkpt lat="43.54653" lon="6.46481">
        <ele>262</ele>
        <time>2018-12-09T08:50:34Z</time>
      </trkpt>
      <trkpt lat="43.54674" lon="6.46478">
        <ele>264</ele>
        <time>2018-12-09T08:51:04Z</time>
      </trkpt>
      <trkpt lat="43.54684" lon="6.46478">
        <ele>269</ele>
        <time>2018-12-09T08:51:18Z</time>
      </trkpt>
      <trkpt lat="43.54691" lon="6.46465">
        <ele>271</ele>
        <time>2018-12-09T08:51:30Z</time>
      </trkpt>
      <trkpt lat="43.54696" lon="6.4645">
        <ele>274</ele>
        <time>2018-12-09T08:51:44Z</time>
      </trkpt>
      <trkpt lat="43.54706" lon="6.46441">
        <ele>273</ele>
        <time>2018-12-09T08:52:01Z</time>
      </trkpt>
      <trkpt lat="43.54713" lon="6.46432">
        <ele>276</ele>
        <time>2018-12-09T08:52:15Z</time>
      </trkpt>
      <trkpt lat="43.54721" lon="6.46419">
        <ele>277</ele>
        <time>2018-12-09T08:52:31Z</time>
      </trkpt>
      <trkpt lat="43.54729" lon="6.46407">
        <ele>280</ele>
        <time>2018-12-09T08:52:49Z</time>
      </trkpt>
      <trkpt lat="43.54736" lon="6.46406">
        <ele>281</ele>
        <time>2018-12-09T08:53:04Z</time>
      </trkpt>
      <trkpt lat="43.54738" lon="6.46414">
        <ele>282</ele>
        <time>2018-12-09T08:53:21Z</time>
      </trkpt>
      <trkpt lat="43.54744" lon="6.46426">
        <ele>284</ele>
        <time>2018-12-09T08:53:35Z</time>
      </trkpt>
      <trkpt lat="43.54754" lon="6.46425">
        <ele>289</ele>
        <time>2018-12-09T08:53:47Z</time>
      </trkpt>
      <trkpt lat="43.54766" lon="6.46425">
        <ele>291</ele>
        <time>2018-12-09T08:53:59Z</time>
      </trkpt>
      <trkpt lat="43.54774" lon="6.46434">
        <ele>296</ele>
        <time>2018-12-09T08:54:18Z</time>
      </trkpt>
      <trkpt lat="43.54778" lon="6.46444">
        <ele>297</ele>
        <time>2018-12-09T08:54:29Z</time>
      </trkpt>
      <trkpt lat="43.54781" lon="6.46455">
        <ele>298</ele>
        <time>2018-12-09T08:54:37Z</time>
      </trkpt>
      <trkpt lat="43.54788" lon="6.46465">
        <ele>297</ele>
        <time>2018-12-09T08:54:49Z</time>
      </trkpt>
      <trkpt lat="43.54793" lon="6.4647">
        <ele>298</ele>
        <time>2018-12-09T08:54:59Z</time>
      </trkpt>
      <trkpt lat="43.548" lon="6.46476">
        <ele>299</ele>
        <time>2018-12-09T08:55:07Z</time>
      </trkpt>
      <trkpt lat="43.54804" lon="6.46486">
        <ele>302</ele>
        <time>2018-12-09T08:55:18Z</time>
      </trkpt>
      <trkpt lat="43.54811" lon="6.46492">
        <ele>302</ele>
        <time>2018-12-09T08:55:29Z</time>
      </trkpt>
      <trkpt lat="43.5482" lon="6.46493">
        <ele>305</ele>
        <time>2018-12-09T08:55:45Z</time>
      </trkpt>
      <trkpt lat="43.5483" lon="6.46497">
        <ele>311</ele>
        <time>2018-12-09T08:55:58Z</time>
      </trkpt>
      <trkpt lat="43.54838" lon="6.46493">
        <ele>312</ele>
        <time>2018-12-09T08:56:08Z</time>
      </trkpt>
      <trkpt lat="43.54847" lon="6.46489">
        <ele>314</ele>
        <time>2018-12-09T08:56:22Z</time>
      </trkpt>
      <trkpt lat="43.54855" lon="6.46491">
        <ele>316</ele>
        <time>2018-12-09T08:56:35Z</time>
      </trkpt>
      <trkpt lat="43.54871" lon="6.46494">
        <ele>319</ele>
        <time>2018-12-09T08:57:09Z</time>
      </trkpt>
      <trkpt lat="43.54879" lon="6.46497">
        <ele>323</ele>
        <time>2018-12-09T08:57:24Z</time>
      </trkpt>
      <trkpt lat="43.54886" lon="6.46503">
        <ele>325</ele>
        <time>2018-12-09T08:57:35Z</time>
      </trkpt>
      <trkpt lat="43.54893" lon="6.46497">
        <ele>327</ele>
        <time>2018-12-09T08:57:48Z</time>
      </trkpt>
      <trkpt lat="43.54904" lon="6.46494">
        <ele>329</ele>
        <time>2018-12-09T08:58:04Z</time>
      </trkpt>
      <trkpt lat="43.54913" lon="6.465">
        <ele>334</ele>
        <time>2018-12-09T08:58:22Z</time>
      </trkpt>
      <trkpt lat="43.54922" lon="6.46497">
        <ele>335</ele>
        <time>2018-12-09T08:58:49Z</time>
      </trkpt>
      <trkpt lat="43.54928" lon="6.46488">
        <ele>341</ele>
        <time>2018-12-09T08:59:42Z</time>
      </trkpt>
      <trkpt lat="43.54937" lon="6.46478">
        <ele>342</ele>
        <time>2018-12-09T09:02:59Z</time>
      </trkpt>
      <trkpt lat="43.54945" lon="6.46469">
        <ele>344</ele>
        <time>2018-12-09T09:03:11Z</time>
      </trkpt>
      <trkpt lat="43.54976" lon="6.46454">
        <ele>347</ele>
        <time>2018-12-09T09:03:42Z</time>
      </trkpt>
      <trkpt lat="43.54988" lon="6.46444">
        <ele>350</ele>
        <time>2018-12-09T09:04:04Z</time>
      </trkpt>
      <trkpt lat="43.55001" lon="6.46442">
        <ele>351</ele>
        <time>2018-12-09T09:04:21Z</time>
      </trkpt>
      <trkpt lat="43.55011" lon="6.46439">
        <ele>355</ele>
        <time>2018-12-09T09:04:34Z</time>
      </trkpt>
      <trkpt lat="43.55022" lon="6.46444">
        <ele>356</ele>
        <time>2018-12-09T09:04:45Z</time>
      </trkpt>
      <trkpt lat="43.55035" lon="6.4645">
        <ele>360</ele>
        <time>2018-12-09T09:04:56Z</time>
      </trkpt>
      <trkpt lat="43.55047" lon="6.46448">
        <ele>360</ele>
        <time>2018-12-09T09:05:11Z</time>
      </trkpt>
      <trkpt lat="43.55061" lon="6.46443">
        <ele>363</ele>
        <time>2018-12-09T09:05:27Z</time>
      </trkpt>
      <trkpt lat="43.55071" lon="6.46438">
        <ele>366</ele>
        <time>2018-12-09T09:05:39Z</time>
      </trkpt>
      <trkpt lat="43.55081" lon="6.46433">
        <ele>366</ele>
        <time>2018-12-09T09:05:50Z</time>
      </trkpt>
      <trkpt lat="43.55091" lon="6.46435">
        <ele>368</ele>
        <time>2018-12-09T09:06:03Z</time>
      </trkpt>
      <trkpt lat="43.55101" lon="6.46429">
        <ele>368</ele>
        <time>2018-12-09T09:06:15Z</time>
      </trkpt>
      <trkpt lat="43.55115" lon="6.46431">
        <ele>369</ele>
        <time>2018-12-09T09:06:29Z</time>
      </trkpt>
      <trkpt lat="43.55137" lon="6.46425">
        <ele>374</ele>
        <time>2018-12-09T09:06:54Z</time>
      </trkpt>
      <trkpt lat="43.55148" lon="6.46425">
        <ele>371</ele>
        <time>2018-12-09T09:07:40Z</time>
      </trkpt>
      <trkpt lat="43.55159" lon="6.46429">
        <ele>373</ele>
        <time>2018-12-09T09:07:57Z</time>
      </trkpt>
      <trkpt lat="43.55168" lon="6.4643">
        <ele>380</ele>
        <time>2018-12-09T09:08:10Z</time>
      </trkpt>
      <trkpt lat="43.5518" lon="6.4643">
        <ele>381</ele>
        <time>2018-12-09T09:08:24Z</time>
      </trkpt>
      <trkpt lat="43.55188" lon="6.46426">
        <ele>383</ele>
        <time>2018-12-09T09:08:42Z</time>
      </trkpt>
      <trkpt lat="43.55198" lon="6.46428">
        <ele>384</ele>
        <time>2018-12-09T09:08:51Z</time>
      </trkpt>
      <trkpt lat="43.55211" lon="6.46426">
        <ele>389</ele>
        <time>2018-12-09T09:09:15Z</time>
      </trkpt>
      <trkpt lat="43.55225" lon="6.46421">
        <ele>390</ele>
        <time>2018-12-09T09:09:40Z</time>
      </trkpt>
      <trkpt lat="43.55236" lon="6.46419">
        <ele>394</ele>
        <time>2018-12-09T09:10:00Z</time>
      </trkpt>
      <trkpt lat="43.55246" lon="6.4641">
        <ele>396</ele>
        <time>2018-12-09T09:10:21Z</time>
      </trkpt>
      <trkpt lat="43.55253" lon="6.46405">
        <ele>399</ele>
        <time>2018-12-09T09:10:38Z</time>
      </trkpt>
      <trkpt lat="43.55261" lon="6.46398">
        <ele>402</ele>
        <time>2018-12-09T09:13:04Z</time>
      </trkpt>
      <trkpt lat="43.55268" lon="6.46392">
        <ele>404</ele>
        <time>2018-12-09T09:13:19Z</time>
      </trkpt>
      <trkpt lat="43.55278" lon="6.46385">
        <ele>408</ele>
        <time>2018-12-09T09:13:34Z</time>
      </trkpt>
      <trkpt lat="43.55288" lon="6.46377">
        <ele>411</ele>
        <time>2018-12-09T09:13:49Z</time>
      </trkpt>
      <trkpt lat="43.55295" lon="6.4637">
        <ele>413</ele>
        <time>2018-12-09T09:14:00Z</time>
      </trkpt>
      <trkpt lat="43.55304" lon="6.46365">
        <ele>415</ele>
        <time>2018-12-09T09:14:16Z</time>
      </trkpt>
      <trkpt lat="43.55313" lon="6.46361">
        <ele>418</ele>
        <time>2018-12-09T09:14:34Z</time>
      </trkpt>
      <trkpt lat="43.55322" lon="6.46359">
        <ele>420</ele>
        <time>2018-12-09T09:14:53Z</time>
      </trkpt>
      <trkpt lat="43.55331" lon="6.46357">
        <ele>422</ele>
        <time>2018-12-09T09:15:10Z</time>
      </trkpt>
      <trkpt lat="43.55343" lon="6.46354">
        <ele>425</ele>
        <time>2018-12-09T09:15:26Z</time>
      </trkpt>
      <trkpt lat="43.55351" lon="6.4635">
        <ele>427</ele>
        <time>2018-12-09T09:15:49Z</time>
      </trkpt>
      <trkpt lat="43.55361" lon="6.46351">
        <ele>429</ele>
        <time>2018-12-09T09:16:05Z</time>
      </trkpt>
      <trkpt lat="43.55368" lon="6.46359">
        <ele>433</ele>
        <time>2018-12-09T09:16:25Z</time>
      </trkpt>
      <trkpt lat="43.55377" lon="6.46362">
        <ele>436</ele>
        <time>2018-12-09T09:16:43Z</time>
      </trkpt>
      <trkpt lat="43.55383" lon="6.46366">
        <ele>437</ele>
        <time>2018-12-09T09:16:59Z</time>
      </trkpt>
      <trkpt lat="43.55391" lon="6.46374">
        <ele>440</ele>
        <time>2018-12-09T09:17:19Z</time>
      </trkpt>
      <trkpt lat="43.55399" lon="6.46378">
        <ele>443</ele>
        <time>2018-12-09T09:17:37Z</time>
      </trkpt>
      <trkpt lat="43.55407" lon="6.46385">
        <ele>447</ele>
        <time>2018-12-09T09:17:55Z</time>
      </trkpt>
      <trkpt lat="43.55415" lon="6.4639">
        <ele>451</ele>
        <time>2018-12-09T09:18:15Z</time>
      </trkpt>
      <trkpt lat="43.55434" lon="6.46394">
        <ele>457</ele>
        <time>2018-12-09T09:18:39Z</time>
      </trkpt>
      <trkpt lat="43.55443" lon="6.46398">
        <ele>457</ele>
        <time>2018-12-09T09:18:49Z</time>
      </trkpt>
      <trkpt lat="43.55452" lon="6.46405">
        <ele>459</ele>
        <time>2018-12-09T09:19:09Z</time>
      </trkpt>
      <trkpt lat="43.55472" lon="6.46417">
        <ele>462</ele>
        <time>2018-12-09T09:19:41Z</time>
      </trkpt>
      <trkpt lat="43.55478" lon="6.46426">
        <ele>465</ele>
        <time>2018-12-09T09:19:59Z</time>
      </trkpt>
      <trkpt lat="43.55485" lon="6.46432">
        <ele>466</ele>
        <time>2018-12-09T09:20:17Z</time>
      </trkpt>
      <trkpt lat="43.55491" lon="6.46441">
        <ele>470</ele>
        <time>2018-12-09T09:20:38Z</time>
      </trkpt>
      <trkpt lat="43.55493" lon="6.46452">
        <ele>473</ele>
        <time>2018-12-09T09:20:59Z</time>
      </trkpt>
      <trkpt lat="43.55501" lon="6.46461">
        <ele>477</ele>
        <time>2018-12-09T09:21:17Z</time>
      </trkpt>
      <trkpt lat="43.55504" lon="6.46469">
        <ele>479</ele>
        <time>2018-12-09T09:21:32Z</time>
      </trkpt>
      <trkpt lat="43.55516" lon="6.46487">
        <ele>482</ele>
        <time>2018-12-09T09:22:05Z</time>
      </trkpt>
      <trkpt lat="43.55523" lon="6.46488">
        <ele>483</ele>
        <time>2018-12-09T09:22:26Z</time>
      </trkpt>
      <trkpt lat="43.5553" lon="6.46499">
        <ele>485</ele>
        <time>2018-12-09T09:22:58Z</time>
      </trkpt>
      <trkpt lat="43.55537" lon="6.46506">
        <ele>489</ele>
        <time>2018-12-09T09:23:12Z</time>
      </trkpt>
      <trkpt lat="43.55544" lon="6.46511">
        <ele>491</ele>
        <time>2018-12-09T09:23:26Z</time>
      </trkpt>
      <trkpt lat="43.55553" lon="6.46516">
        <ele>493</ele>
        <time>2018-12-09T09:23:42Z</time>
      </trkpt>
      <trkpt lat="43.5557" lon="6.46518">
        <ele>496</ele>
        <time>2018-12-09T09:24:08Z</time>
      </trkpt>
      <trkpt lat="43.55578" lon="6.46526">
        <ele>499</ele>
        <time>2018-12-09T09:24:27Z</time>
      </trkpt>
      <trkpt lat="43.55585" lon="6.46533">
        <ele>498</ele>
        <time>2018-12-09T09:24:39Z</time>
      </trkpt>
      <trkpt lat="43.55585" lon="6.46543">
        <ele>500</ele>
        <time>2018-12-09T09:24:53Z</time>
      </trkpt>
      <trkpt lat="43.55588" lon="6.46552">
        <ele>500</ele>
        <time>2018-12-09T09:25:02Z</time>
      </trkpt>
      <trkpt lat="43.55599" lon="6.46558">
        <ele>502</ele>
        <time>2018-12-09T09:25:39Z</time>
      </trkpt>
      <trkpt lat="43.55586" lon="6.46561">
        <ele>503</ele>
        <time>2018-12-09T09:26:15Z</time>
      </trkpt>
      <trkpt lat="43.55592" lon="6.46562">
        <ele>504</ele>
        <time>2018-12-09T09:27:24Z</time>
      </trkpt>
      <trkpt lat="43.55599" lon="6.4656">
        <ele>505</ele>
        <time>2018-12-09T09:27:31Z</time>
      </trkpt>
      <trkpt lat="43.55599" lon="6.46555">
        <ele>504</ele>
        <time>2018-12-09T09:28:49Z</time>
      </trkpt>
      <trkpt lat="43.55605" lon="6.46558">
        <ele>505</ele>
        <time>2018-12-09T09:35:53Z</time>
      </trkpt>
      <trkpt lat="43.55631" lon="6.46564">
        <ele>507</ele>
        <time>2018-12-09T09:36:20Z</time>
      </trkpt>
      <trkpt lat="43.55643" lon="6.46569">
        <ele>508</ele>
        <time>2018-12-09T09:36:30Z</time>
      </trkpt>
      <trkpt lat="43.5565" lon="6.46571">
        <ele>508</ele>
        <time>2018-12-09T09:36:36Z</time>
      </trkpt>
      <trkpt lat="43.55657" lon="6.46573">
        <ele>508</ele>
        <time>2018-12-09T09:36:44Z</time>
      </trkpt>
      <trkpt lat="43.55667" lon="6.46575">
        <ele>508</ele>
        <time>2018-12-09T09:36:53Z</time>
      </trkpt>
      <trkpt lat="43.55674" lon="6.46575">
        <ele>508</ele>
        <time>2018-12-09T09:37:00Z</time>
      </trkpt>
      <trkpt lat="43.55678" lon="6.46568">
        <ele>509</ele>
        <time>2018-12-09T09:37:05Z</time>
      </trkpt>
      <trkpt lat="43.55678" lon="6.46552">
        <ele>511</ele>
        <time>2018-12-09T09:37:57Z</time>
      </trkpt>
      <trkpt lat="43.55675" lon="6.46542">
        <ele>511</ele>
        <time>2018-12-09T09:38:17Z</time>
      </trkpt>
      <trkpt lat="43.55672" lon="6.46523">
        <ele>513</ele>
        <time>2018-12-09T09:38:41Z</time>
      </trkpt>
      <trkpt lat="43.55672" lon="6.46512">
        <ele>515</ele>
        <time>2018-12-09T09:38:49Z</time>
      </trkpt>
      <trkpt lat="43.55672" lon="6.46504">
        <ele>516</ele>
        <time>2018-12-09T09:38:59Z</time>
      </trkpt>
      <trkpt lat="43.55669" lon="6.46493">
        <ele>518</ele>
        <time>2018-12-09T09:39:09Z</time>
      </trkpt>
      <trkpt lat="43.55663" lon="6.46485">
        <ele>519</ele>
        <time>2018-12-09T09:39:18Z</time>
      </trkpt>
      <trkpt lat="43.55662" lon="6.46473">
        <ele>520</ele>
        <time>2018-12-09T09:39:27Z</time>
      </trkpt>
      <trkpt lat="43.55663" lon="6.4646">
        <ele>521</ele>
        <time>2018-12-09T09:39:43Z</time>
      </trkpt>
      <trkpt lat="43.55666" lon="6.46449">
        <ele>523</ele>
        <time>2018-12-09T09:39:55Z</time>
      </trkpt>
      <trkpt lat="43.55666" lon="6.4644">
        <ele>525</ele>
        <time>2018-12-09T09:40:05Z</time>
      </trkpt>
      <trkpt lat="43.55662" lon="6.46432">
        <ele>526</ele>
        <time>2018-12-09T09:40:18Z</time>
      </trkpt>
      <trkpt lat="43.55658" lon="6.46424">
        <ele>527</ele>
        <time>2018-12-09T09:40:27Z</time>
      </trkpt>
      <trkpt lat="43.55661" lon="6.46403">
        <ele>530</ele>
        <time>2018-12-09T09:40:51Z</time>
      </trkpt>
      <trkpt lat="43.55661" lon="6.46393">
        <ele>532</ele>
        <time>2018-12-09T09:41:04Z</time>
      </trkpt>
      <trkpt lat="43.5566" lon="6.46384">
        <ele>534</ele>
        <time>2018-12-09T09:41:11Z</time>
      </trkpt>
      <trkpt lat="43.55659" lon="6.46375">
        <ele>535</ele>
        <time>2018-12-09T09:41:18Z</time>
      </trkpt>
      <trkpt lat="43.55654" lon="6.46349">
        <ele>538</ele>
        <time>2018-12-09T09:41:38Z</time>
      </trkpt>
      <trkpt lat="43.55654" lon="6.46338">
        <ele>538</ele>
        <time>2018-12-09T09:41:46Z</time>
      </trkpt>
      <trkpt lat="43.55653" lon="6.46326">
        <ele>539</ele>
        <time>2018-12-09T09:41:56Z</time>
      </trkpt>
      <trkpt lat="43.55653" lon="6.46314">
        <ele>540</ele>
        <time>2018-12-09T09:42:05Z</time>
      </trkpt>
      <trkpt lat="43.55655" lon="6.46304">
        <ele>541</ele>
        <time>2018-12-09T09:42:12Z</time>
      </trkpt>
      <trkpt lat="43.55658" lon="6.46282">
        <ele>542</ele>
        <time>2018-12-09T09:42:26Z</time>
      </trkpt>
      <trkpt lat="43.55659" lon="6.46273">
        <ele>543</ele>
        <time>2018-12-09T09:42:33Z</time>
      </trkpt>
      <trkpt lat="43.5566" lon="6.46263">
        <ele>543</ele>
        <time>2018-12-09T09:42:39Z</time>
      </trkpt>
      <trkpt lat="43.5566" lon="6.46255">
        <ele>543</ele>
        <time>2018-12-09T09:42:45Z</time>
      </trkpt>
      <trkpt lat="43.55665" lon="6.46254">
        <ele>541</ele>
        <time>2018-12-09T09:44:26Z</time>
      </trkpt>
      <trkpt lat="43.55671" lon="6.46255">
        <ele>542</ele>
        <time>2018-12-09T09:44:52Z</time>
      </trkpt>
      <trkpt lat="43.55683" lon="6.46255">
        <ele>546</ele>
        <time>2018-12-09T09:45:09Z</time>
      </trkpt>
      <trkpt lat="43.55708" lon="6.46251">
        <ele>548</ele>
        <time>2018-12-09T09:45:43Z</time>
      </trkpt>
      <trkpt lat="43.55716" lon="6.46251">
        <ele>549</ele>
        <time>2018-12-09T09:45:51Z</time>
      </trkpt>
      <trkpt lat="43.5573" lon="6.46255">
        <ele>552</ele>
        <time>2018-12-09T09:46:06Z</time>
      </trkpt>
      <trkpt lat="43.55734" lon="6.46262">
        <ele>554</ele>
        <time>2018-12-09T09:46:13Z</time>
      </trkpt>
      <trkpt lat="43.5574" lon="6.46268">
        <ele>553</ele>
        <time>2018-12-09T09:46:22Z</time>
      </trkpt>
      <trkpt lat="43.55746" lon="6.46273">
        <ele>552</ele>
        <time>2018-12-09T09:46:29Z</time>
      </trkpt>
      <trkpt lat="43.55753" lon="6.46279">
        <ele>552</ele>
        <time>2018-12-09T09:46:41Z</time>
      </trkpt>
      <trkpt lat="43.5576" lon="6.4628">
        <ele>552</ele>
        <time>2018-12-09T09:46:48Z</time>
      </trkpt>
      <trkpt lat="43.55768" lon="6.46278">
        <ele>551</ele>
        <time>2018-12-09T09:46:57Z</time>
      </trkpt>
      <trkpt lat="43.55774" lon="6.46274">
        <ele>551</ele>
        <time>2018-12-09T09:47:03Z</time>
      </trkpt>
      <trkpt lat="43.55782" lon="6.46271">
        <ele>551</ele>
        <time>2018-12-09T09:47:12Z</time>
      </trkpt>
      <trkpt lat="43.55796" lon="6.46273">
        <ele>548</ele>
        <time>2018-12-09T09:47:36Z</time>
      </trkpt>
      <trkpt lat="43.55807" lon="6.4626">
        <ele>548</ele>
        <time>2018-12-09T09:47:52Z</time>
      </trkpt>
      <trkpt lat="43.55815" lon="6.46253">
        <ele>549</ele>
        <time>2018-12-09T09:48:01Z</time>
      </trkpt>
      <trkpt lat="43.55822" lon="6.46249">
        <ele>549</ele>
        <time>2018-12-09T09:48:09Z</time>
      </trkpt>
      <trkpt lat="43.55828" lon="6.46254">
        <ele>550</ele>
        <time>2018-12-09T09:48:19Z</time>
      </trkpt>
      <trkpt lat="43.5583" lon="6.46261">
        <ele>550</ele>
        <time>2018-12-09T09:48:25Z</time>
      </trkpt>
      <trkpt lat="43.55837" lon="6.46266">
        <ele>550</ele>
        <time>2018-12-09T09:48:32Z</time>
      </trkpt>
      <trkpt lat="43.55849" lon="6.46257">
        <ele>548</ele>
        <time>2018-12-09T09:48:44Z</time>
      </trkpt>
      <trkpt lat="43.55854" lon="6.46249">
        <ele>548</ele>
        <time>2018-12-09T09:48:52Z</time>
      </trkpt>
      <trkpt lat="43.5586" lon="6.4624">
        <ele>549</ele>
        <time>2018-12-09T09:48:59Z</time>
      </trkpt>
      <trkpt lat="43.55866" lon="6.46236">
        <ele>549</ele>
        <time>2018-12-09T09:49:06Z</time>
      </trkpt>
      <trkpt lat="43.55869" lon="6.46228">
        <ele>547</ele>
        <time>2018-12-09T09:49:12Z</time>
      </trkpt>
      <trkpt lat="43.55871" lon="6.46221">
        <ele>547</ele>
        <time>2018-12-09T09:49:22Z</time>
      </trkpt>
      <trkpt lat="43.55875" lon="6.46225">
        <ele>544</ele>
        <time>2018-12-09T09:52:07Z</time>
      </trkpt>
      <trkpt lat="43.55877" lon="6.46232">
        <ele>544</ele>
        <time>2018-12-09T09:52:17Z</time>
      </trkpt>
      <trkpt lat="43.55881" lon="6.46238">
        <ele>544</ele>
        <time>2018-12-09T09:52:28Z</time>
      </trkpt>
      <trkpt lat="43.55887" lon="6.46241">
        <ele>544</ele>
        <time>2018-12-09T09:52:36Z</time>
      </trkpt>
      <trkpt lat="43.55893" lon="6.46244">
        <ele>544</ele>
        <time>2018-12-09T09:52:44Z</time>
      </trkpt>
      <trkpt lat="43.55917" lon="6.46262">
        <ele>542</ele>
        <time>2018-12-09T09:53:21Z</time>
      </trkpt>
      <trkpt lat="43.55925" lon="6.46266">
        <ele>540</ele>
        <time>2018-12-09T09:53:30Z</time>
      </trkpt>
      <trkpt lat="43.55932" lon="6.46264">
        <ele>539</ele>
        <time>2018-12-09T09:53:39Z</time>
      </trkpt>
      <trkpt lat="43.55964" lon="6.46271">
        <ele>538</ele>
        <time>2018-12-09T09:54:14Z</time>
      </trkpt>
      <trkpt lat="43.55972" lon="6.46266">
        <ele>537</ele>
        <time>2018-12-09T09:54:23Z</time>
      </trkpt>
      <trkpt lat="43.55976" lon="6.46255">
        <ele>535</ele>
        <time>2018-12-09T09:54:31Z</time>
      </trkpt>
      <trkpt lat="43.55974" lon="6.46245">
        <ele>535</ele>
        <time>2018-12-09T09:54:38Z</time>
      </trkpt>
      <trkpt lat="43.5598" lon="6.46239">
        <ele>536</ele>
        <time>2018-12-09T09:54:47Z</time>
      </trkpt>
      <trkpt lat="43.55984" lon="6.4623">
        <ele>536</ele>
        <time>2018-12-09T09:55:00Z</time>
      </trkpt>
      <trkpt lat="43.55993" lon="6.46232">
        <ele>538</ele>
        <time>2018-12-09T09:55:16Z</time>
      </trkpt>
      <trkpt lat="43.56002" lon="6.46239">
        <ele>537</ele>
        <time>2018-12-09T09:55:22Z</time>
      </trkpt>
      <trkpt lat="43.56011" lon="6.46242">
        <ele>536</ele>
        <time>2018-12-09T09:55:29Z</time>
      </trkpt>
      <trkpt lat="43.56017" lon="6.46233">
        <ele>536</ele>
        <time>2018-12-09T09:55:37Z</time>
      </trkpt>
      <trkpt lat="43.56023" lon="6.46224">
        <ele>536</ele>
        <time>2018-12-09T09:55:45Z</time>
      </trkpt>
      <trkpt lat="43.56031" lon="6.46219">
        <ele>536</ele>
        <time>2018-12-09T09:55:58Z</time>
      </trkpt>
      <trkpt lat="43.56038" lon="6.46212">
        <ele>536</ele>
        <time>2018-12-09T09:56:04Z</time>
      </trkpt>
      <trkpt lat="43.56039" lon="6.46201">
        <ele>534</ele>
        <time>2018-12-09T09:56:14Z</time>
      </trkpt>
      <trkpt lat="43.56041" lon="6.4619">
        <ele>534</ele>
        <time>2018-12-09T09:56:27Z</time>
      </trkpt>
      <trkpt lat="43.56048" lon="6.46172">
        <ele>531</ele>
        <time>2018-12-09T09:56:54Z</time>
      </trkpt>
      <trkpt lat="43.56057" lon="6.46153">
        <ele>531</ele>
        <time>2018-12-09T09:57:20Z</time>
      </trkpt>
      <trkpt lat="43.56062" lon="6.46144">
        <ele>529</ele>
        <time>2018-12-09T09:57:34Z</time>
      </trkpt>
      <trkpt lat="43.56071" lon="6.46138">
        <ele>529</ele>
        <time>2018-12-09T09:57:44Z</time>
      </trkpt>
      <trkpt lat="43.56074" lon="6.46128">
        <ele>529</ele>
        <time>2018-12-09T09:57:55Z</time>
      </trkpt>
      <trkpt lat="43.56074" lon="6.46105">
        <ele>526</ele>
        <time>2018-12-09T09:58:25Z</time>
      </trkpt>
      <trkpt lat="43.56078" lon="6.46093">
        <ele>526</ele>
        <time>2018-12-09T09:58:36Z</time>
      </trkpt>
      <trkpt lat="43.56081" lon="6.46074">
        <ele>522</ele>
        <time>2018-12-09T09:59:10Z</time>
      </trkpt>
      <trkpt lat="43.56084" lon="6.46061">
        <ele>519</ele>
        <time>2018-12-09T09:59:25Z</time>
      </trkpt>
      <trkpt lat="43.56092" lon="6.46052">
        <ele>518</ele>
        <time>2018-12-09T09:59:50Z</time>
      </trkpt>
      <trkpt lat="43.56102" lon="6.46046">
        <ele>515</ele>
        <time>2018-12-09T10:00:04Z</time>
      </trkpt>
      <trkpt lat="43.5611" lon="6.46035">
        <ele>514</ele>
        <time>2018-12-09T10:00:12Z</time>
      </trkpt>
      <trkpt lat="43.56116" lon="6.46025">
        <ele>510</ele>
        <time>2018-12-09T10:00:19Z</time>
      </trkpt>
      <trkpt lat="43.56121" lon="6.46019">
        <ele>508</ele>
        <time>2018-12-09T10:00:34Z</time>
      </trkpt>
      <trkpt lat="43.56123" lon="6.4601">
        <ele>504</ele>
        <time>2018-12-09T10:00:47Z</time>
      </trkpt>
      <trkpt lat="43.56129" lon="6.45999">
        <ele>503</ele>
        <time>2018-12-09T10:00:57Z</time>
      </trkpt>
      <trkpt lat="43.56134" lon="6.45989">
        <ele>503</ele>
        <time>2018-12-09T10:01:06Z</time>
      </trkpt>
      <trkpt lat="43.56151" lon="6.45952">
        <ele>501</ele>
        <time>2018-12-09T10:01:38Z</time>
      </trkpt>
      <trkpt lat="43.56158" lon="6.45949">
        <ele>501</ele>
        <time>2018-12-09T10:01:46Z</time>
      </trkpt>
      <trkpt lat="43.56165" lon="6.45942">
        <ele>501</ele>
        <time>2018-12-09T10:01:58Z</time>
      </trkpt>
      <trkpt lat="43.56171" lon="6.45934">
        <ele>502</ele>
        <time>2018-12-09T10:02:05Z</time>
      </trkpt>
      <trkpt lat="43.56187" lon="6.45917">
        <ele>501</ele>
        <time>2018-12-09T10:02:27Z</time>
      </trkpt>
      <trkpt lat="43.56194" lon="6.45917">
        <ele>500</ele>
        <time>2018-12-09T10:02:34Z</time>
      </trkpt>
      <trkpt lat="43.56216" lon="6.45902">
        <ele>502</ele>
        <time>2018-12-09T10:03:08Z</time>
      </trkpt>
      <trkpt lat="43.56221" lon="6.45896">
        <ele>499</ele>
        <time>2018-12-09T10:04:33Z</time>
      </trkpt>
      <trkpt lat="43.56226" lon="6.45889">
        <ele>498</ele>
        <time>2018-12-09T10:04:39Z</time>
      </trkpt>
      <trkpt lat="43.56228" lon="6.4588">
        <ele>499</ele>
        <time>2018-12-09T10:04:47Z</time>
      </trkpt>
      <trkpt lat="43.56248" lon="6.45837">
        <ele>500</ele>
        <time>2018-12-09T10:05:14Z</time>
      </trkpt>
      <trkpt lat="43.56252" lon="6.45831">
        <ele>499</ele>
        <time>2018-12-09T10:05:19Z</time>
      </trkpt>
      <trkpt lat="43.56257" lon="6.45825">
        <ele>500</ele>
        <time>2018-12-09T10:05:24Z</time>
      </trkpt>
      <trkpt lat="43.56262" lon="6.45819">
        <ele>499</ele>
        <time>2018-12-09T10:05:29Z</time>
      </trkpt>
      <trkpt lat="43.56265" lon="6.4581">
        <ele>499</ele>
        <time>2018-12-09T10:05:33Z</time>
      </trkpt>
      <trkpt lat="43.5627" lon="6.45786">
        <ele>498</ele>
        <time>2018-12-09T10:05:49Z</time>
      </trkpt>
      <trkpt lat="43.56275" lon="6.4578">
        <ele>497</ele>
        <time>2018-12-09T10:05:54Z</time>
      </trkpt>
      <trkpt lat="43.5629" lon="6.4575">
        <ele>499</ele>
        <time>2018-12-09T10:06:16Z</time>
      </trkpt>
      <trkpt lat="43.56295" lon="6.45739">
        <ele>501</ele>
        <time>2018-12-09T10:06:26Z</time>
      </trkpt>
      <trkpt lat="43.56297" lon="6.4573">
        <ele>501</ele>
        <time>2018-12-09T10:06:35Z</time>
      </trkpt>
      <trkpt lat="43.563" lon="6.45719">
        <ele>502</ele>
        <time>2018-12-09T10:06:43Z</time>
      </trkpt>
      <trkpt lat="43.56309" lon="6.45701">
        <ele>501</ele>
        <time>2018-12-09T10:06:59Z</time>
      </trkpt>
      <trkpt lat="43.56314" lon="6.45679">
        <ele>501</ele>
        <time>2018-12-09T10:07:14Z</time>
      </trkpt>
      <trkpt lat="43.56313" lon="6.45669">
        <ele>502</ele>
        <time>2018-12-09T10:07:21Z</time>
      </trkpt>
      <trkpt lat="43.56315" lon="6.45661">
        <ele>503</ele>
        <time>2018-12-09T10:07:27Z</time>
      </trkpt>
      <trkpt lat="43.56319" lon="6.45654">
        <ele>502</ele>
        <time>2018-12-09T10:07:33Z</time>
      </trkpt>
      <trkpt lat="43.56322" lon="6.45646">
        <ele>503</ele>
        <time>2018-12-09T10:07:39Z</time>
      </trkpt>
      <trkpt lat="43.56328" lon="6.4564">
        <ele>502</ele>
        <time>2018-12-09T10:07:49Z</time>
      </trkpt>
      <trkpt lat="43.56328" lon="6.45633">
        <ele>500</ele>
        <time>2018-12-09T10:07:59Z</time>
      </trkpt>
      <trkpt lat="43.56335" lon="6.45619">
        <ele>502</ele>
        <time>2018-12-09T10:08:16Z</time>
      </trkpt>
      <trkpt lat="43.56339" lon="6.45615">
        <ele>504</ele>
        <time>2018-12-09T10:08:26Z</time>
      </trkpt>
      <trkpt lat="43.56345" lon="6.4561">
        <ele>504</ele>
        <time>2018-12-09T10:08:38Z</time>
      </trkpt>
      <trkpt lat="43.56352" lon="6.45603">
        <ele>505</ele>
        <time>2018-12-09T10:08:45Z</time>
      </trkpt>
      <trkpt lat="43.56351" lon="6.45594">
        <ele>505</ele>
        <time>2018-12-09T10:08:54Z</time>
      </trkpt>
      <trkpt lat="43.56353" lon="6.45584">
        <ele>506</ele>
        <time>2018-12-09T10:09:05Z</time>
      </trkpt>
      <trkpt lat="43.56357" lon="6.45574">
        <ele>507</ele>
        <time>2018-12-09T10:09:13Z</time>
      </trkpt>
      <trkpt lat="43.56353" lon="6.45564">
        <ele>508</ele>
        <time>2018-12-09T10:09:23Z</time>
      </trkpt>
      <trkpt lat="43.56347" lon="6.45558">
        <ele>507</ele>
        <time>2018-12-09T10:09:31Z</time>
      </trkpt>
      <trkpt lat="43.56341" lon="6.45535">
        <ele>509</ele>
        <time>2018-12-09T10:09:53Z</time>
      </trkpt>
      <trkpt lat="43.5634" lon="6.45524">
        <ele>510</ele>
        <time>2018-12-09T10:10:07Z</time>
      </trkpt>
      <trkpt lat="43.5634" lon="6.45512">
        <ele>511</ele>
        <time>2018-12-09T10:10:17Z</time>
      </trkpt>
      <trkpt lat="43.56338" lon="6.45501">
        <ele>510</ele>
        <time>2018-12-09T10:10:28Z</time>
      </trkpt>
      <trkpt lat="43.56338" lon="6.4549">
        <ele>511</ele>
        <time>2018-12-09T10:10:37Z</time>
      </trkpt>
      <trkpt lat="43.56341" lon="6.45481">
        <ele>511</ele>
        <time>2018-12-09T10:10:47Z</time>
      </trkpt>
      <trkpt lat="43.56345" lon="6.45473">
        <ele>511</ele>
        <time>2018-12-09T10:10:59Z</time>
      </trkpt>
      <trkpt lat="43.56345" lon="6.45461">
        <ele>512</ele>
        <time>2018-12-09T10:11:10Z</time>
      </trkpt>
      <trkpt lat="43.56339" lon="6.45454">
        <ele>513</ele>
        <time>2018-12-09T10:11:21Z</time>
      </trkpt>
      <trkpt lat="43.56343" lon="6.45444">
        <ele>513</ele>
        <time>2018-12-09T10:11:33Z</time>
      </trkpt>
      <trkpt lat="43.56342" lon="6.45434">
        <ele>515</ele>
        <time>2018-12-09T10:11:39Z</time>
      </trkpt>
      <trkpt lat="43.56346" lon="6.45421">
        <ele>517</ele>
        <time>2018-12-09T10:11:55Z</time>
      </trkpt>
      <trkpt lat="43.56348" lon="6.4541">
        <ele>517</ele>
        <time>2018-12-09T10:12:02Z</time>
      </trkpt>
      <trkpt lat="43.56344" lon="6.45404">
        <ele>517</ele>
        <time>2018-12-09T10:12:09Z</time>
      </trkpt>
      <trkpt lat="43.56338" lon="6.45399">
        <ele>515</ele>
        <time>2018-12-09T10:12:24Z</time>
      </trkpt>
      <trkpt lat="43.56335" lon="6.45389">
        <ele>516</ele>
        <time>2018-12-09T10:12:32Z</time>
      </trkpt>
      <trkpt lat="43.56328" lon="6.45382">
        <ele>515</ele>
        <time>2018-12-09T10:12:41Z</time>
      </trkpt>
      <trkpt lat="43.56324" lon="6.45373">
        <ele>514</ele>
        <time>2018-12-09T10:12:56Z</time>
      </trkpt>
      <trkpt lat="43.56324" lon="6.45363">
        <ele>513</ele>
        <time>2018-12-09T10:13:07Z</time>
      </trkpt>
      <trkpt lat="43.56319" lon="6.45357">
        <ele>513</ele>
        <time>2018-12-09T10:13:14Z</time>
      </trkpt>
      <trkpt lat="43.56321" lon="6.45349">
        <ele>512</ele>
        <time>2018-12-09T10:14:33Z</time>
      </trkpt>
      <trkpt lat="43.56324" lon="6.45331">
        <ele>513</ele>
        <time>2018-12-09T10:14:47Z</time>
      </trkpt>
      <trkpt lat="43.56324" lon="6.45321">
        <ele>513</ele>
        <time>2018-12-09T10:14:55Z</time>
      </trkpt>
      <trkpt lat="43.5632" lon="6.4531">
        <ele>511</ele>
        <time>2018-12-09T10:15:07Z</time>
      </trkpt>
      <trkpt lat="43.56312" lon="6.45306">
        <ele>509</ele>
        <time>2018-12-09T10:15:23Z</time>
      </trkpt>
      <trkpt lat="43.56309" lon="6.45297">
        <ele>508</ele>
        <time>2018-12-09T10:15:39Z</time>
      </trkpt>
      <trkpt lat="43.56307" lon="6.45286">
        <ele>508</ele>
        <time>2018-12-09T10:15:48Z</time>
      </trkpt>
      <trkpt lat="43.56305" lon="6.45275">
        <ele>507</ele>
        <time>2018-12-09T10:15:57Z</time>
      </trkpt>
      <trkpt lat="43.56306" lon="6.45262">
        <ele>506</ele>
        <time>2018-12-09T10:16:09Z</time>
      </trkpt>
      <trkpt lat="43.5631" lon="6.45252">
        <ele>504</ele>
        <time>2018-12-09T10:16:21Z</time>
      </trkpt>
      <trkpt lat="43.56308" lon="6.45242">
        <ele>503</ele>
        <time>2018-12-09T10:16:30Z</time>
      </trkpt>
      <trkpt lat="43.56307" lon="6.45229">
        <ele>503</ele>
        <time>2018-12-09T10:16:42Z</time>
      </trkpt>
      <trkpt lat="43.56308" lon="6.45217">
        <ele>502</ele>
        <time>2018-12-09T10:16:53Z</time>
      </trkpt>
      <trkpt lat="43.56308" lon="6.45204">
        <ele>501</ele>
        <time>2018-12-09T10:17:01Z</time>
      </trkpt>
      <trkpt lat="43.56303" lon="6.45194">
        <ele>500</ele>
        <time>2018-12-09T10:17:13Z</time>
      </trkpt>
      <trkpt lat="43.56296" lon="6.45186">
        <ele>497</ele>
        <time>2018-12-09T10:17:24Z</time>
      </trkpt>
      <trkpt lat="43.5629" lon="6.45176">
        <ele>498</ele>
        <time>2018-12-09T10:17:34Z</time>
      </trkpt>
      <trkpt lat="43.563" lon="6.45157">
        <ele>496</ele>
        <time>2018-12-09T10:18:00Z</time>
      </trkpt>
      <trkpt lat="43.56301" lon="6.45146">
        <ele>496</ele>
        <time>2018-12-09T10:18:07Z</time>
      </trkpt>
      <trkpt lat="43.56303" lon="6.45134">
        <ele>496</ele>
        <time>2018-12-09T10:18:21Z</time>
      </trkpt>
      <trkpt lat="43.56305" lon="6.45125">
        <ele>496</ele>
        <time>2018-12-09T10:18:31Z</time>
      </trkpt>
      <trkpt lat="43.56307" lon="6.45114">
        <ele>493</ele>
        <time>2018-12-09T10:18:43Z</time>
      </trkpt>
      <trkpt lat="43.56308" lon="6.45105">
        <ele>493</ele>
        <time>2018-12-09T10:18:52Z</time>
      </trkpt>
      <trkpt lat="43.56316" lon="6.45097">
        <ele>492</ele>
        <time>2018-12-09T10:19:10Z</time>
      </trkpt>
      <trkpt lat="43.56313" lon="6.45086">
        <ele>489</ele>
        <time>2018-12-09T10:19:23Z</time>
      </trkpt>
      <trkpt lat="43.56314" lon="6.45073">
        <ele>489</ele>
        <time>2018-12-09T10:19:37Z</time>
      </trkpt>
      <trkpt lat="43.56308" lon="6.45064">
        <ele>487</ele>
        <time>2018-12-09T10:19:49Z</time>
      </trkpt>
      <trkpt lat="43.56289" lon="6.45059">
        <ele>485</ele>
        <time>2018-12-09T10:20:15Z</time>
      </trkpt>
      <trkpt lat="43.56269" lon="6.45059">
        <ele>483</ele>
        <time>2018-12-09T10:20:38Z</time>
      </trkpt>
      <trkpt lat="43.56258" lon="6.45054">
        <ele>482</ele>
        <time>2018-12-09T10:20:51Z</time>
      </trkpt>
      <trkpt lat="43.56249" lon="6.45054">
        <ele>481</ele>
        <time>2018-12-09T10:21:01Z</time>
      </trkpt>
      <trkpt lat="43.56239" lon="6.45053">
        <ele>480</ele>
        <time>2018-12-09T10:21:09Z</time>
      </trkpt>
      <trkpt lat="43.56231" lon="6.45045">
        <ele>478</ele>
        <time>2018-12-09T10:21:32Z</time>
      </trkpt>
      <trkpt lat="43.56233" lon="6.45033">
        <ele>479</ele>
        <time>2018-12-09T10:21:46Z</time>
      </trkpt>
      <trkpt lat="43.56236" lon="6.4502">
        <ele>481</ele>
        <time>2018-12-09T10:22:06Z</time>
      </trkpt>
      <trkpt lat="43.56249" lon="6.45">
        <ele>482</ele>
        <time>2018-12-09T10:22:27Z</time>
      </trkpt>
      <trkpt lat="43.56252" lon="6.4499">
        <ele>481</ele>
        <time>2018-12-09T10:22:34Z</time>
      </trkpt>
      <trkpt lat="43.56252" lon="6.44978">
        <ele>482</ele>
        <time>2018-12-09T10:22:44Z</time>
      </trkpt>
      <trkpt lat="43.56251" lon="6.44967">
        <ele>482</ele>
        <time>2018-12-09T10:22:53Z</time>
      </trkpt>
      <trkpt lat="43.5625" lon="6.44956">
        <ele>482</ele>
        <time>2018-12-09T10:23:03Z</time>
      </trkpt>
      <trkpt lat="43.56248" lon="6.44947">
        <ele>482</ele>
        <time>2018-12-09T10:23:09Z</time>
      </trkpt>
      <trkpt lat="43.56248" lon="6.44939">
        <ele>482</ele>
        <time>2018-12-09T10:23:22Z</time>
      </trkpt>
      <trkpt lat="43.56242" lon="6.44938">
        <ele>480</ele>
        <time>2018-12-09T10:25:46Z</time>
      </trkpt>
      <trkpt lat="43.56238" lon="6.4493">
        <ele>480</ele>
        <time>2018-12-09T10:25:59Z</time>
      </trkpt>
      <trkpt lat="43.56234" lon="6.4492">
        <ele>480</ele>
        <time>2018-12-09T10:26:09Z</time>
      </trkpt>
      <trkpt lat="43.5623" lon="6.4491">
        <ele>479</ele>
        <time>2018-12-09T10:26:17Z</time>
      </trkpt>
      <trkpt lat="43.56225" lon="6.44901">
        <ele>480</ele>
        <time>2018-12-09T10:26:27Z</time>
      </trkpt>
      <trkpt lat="43.56225" lon="6.4489">
        <ele>479</ele>
        <time>2018-12-09T10:26:36Z</time>
      </trkpt>
      <trkpt lat="43.56225" lon="6.44879">
        <ele>476</ele>
        <time>2018-12-09T10:26:45Z</time>
      </trkpt>
      <trkpt lat="43.56237" lon="6.44861">
        <ele>476</ele>
        <time>2018-12-09T10:27:01Z</time>
      </trkpt>
      <trkpt lat="43.56235" lon="6.44848">
        <ele>475</ele>
        <time>2018-12-09T10:27:11Z</time>
      </trkpt>
      <trkpt lat="43.56236" lon="6.44836">
        <ele>473</ele>
        <time>2018-12-09T10:27:22Z</time>
      </trkpt>
      <trkpt lat="43.56239" lon="6.44822">
        <ele>472</ele>
        <time>2018-12-09T10:27:33Z</time>
      </trkpt>
      <trkpt lat="43.56248" lon="6.44786">
        <ele>471</ele>
        <time>2018-12-09T10:28:11Z</time>
      </trkpt>
      <trkpt lat="43.56259" lon="6.44777">
        <ele>467</ele>
        <time>2018-12-09T10:29:43Z</time>
      </trkpt>
      <trkpt lat="43.56268" lon="6.44777">
        <ele>467</ele>
        <time>2018-12-09T10:30:10Z</time>
      </trkpt>
      <trkpt lat="43.56278" lon="6.44774">
        <ele>467</ele>
        <time>2018-12-09T10:30:18Z</time>
      </trkpt>
      <trkpt lat="43.56285" lon="6.44766">
        <ele>468</ele>
        <time>2018-12-09T10:30:32Z</time>
      </trkpt>
      <trkpt lat="43.56288" lon="6.44753">
        <ele>469</ele>
        <time>2018-12-09T10:30:43Z</time>
      </trkpt>
      <trkpt lat="43.56292" lon="6.44745">
        <ele>471</ele>
        <time>2018-12-09T10:30:51Z</time>
      </trkpt>
      <trkpt lat="43.56291" lon="6.44733">
        <ele>471</ele>
        <time>2018-12-09T10:31:04Z</time>
      </trkpt>
      <trkpt lat="43.56291" lon="6.44722">
        <ele>472</ele>
        <time>2018-12-09T10:31:18Z</time>
      </trkpt>
      <trkpt lat="43.56285" lon="6.447">
        <ele>471</ele>
        <time>2018-12-09T10:31:37Z</time>
      </trkpt>
      <trkpt lat="43.56278" lon="6.44691">
        <ele>472</ele>
        <time>2018-12-09T10:31:50Z</time>
      </trkpt>
      <trkpt lat="43.56271" lon="6.44686">
        <ele>471</ele>
        <time>2018-12-09T10:32:01Z</time>
      </trkpt>
      <trkpt lat="43.56264" lon="6.44677">
        <ele>470</ele>
        <time>2018-12-09T10:32:13Z</time>
      </trkpt>
      <trkpt lat="43.5626" lon="6.44668">
        <ele>469</ele>
        <time>2018-12-09T10:32:22Z</time>
      </trkpt>
      <trkpt lat="43.56259" lon="6.44656">
        <ele>468</ele>
        <time>2018-12-09T10:32:32Z</time>
      </trkpt>
      <trkpt lat="43.56251" lon="6.44658">
        <ele>467</ele>
        <time>2018-12-09T10:33:00Z</time>
      </trkpt>
      <trkpt lat="43.56247" lon="6.44647">
        <ele>464</ele>
        <time>2018-12-09T10:33:21Z</time>
      </trkpt>
      <trkpt lat="43.56237" lon="6.44629">
        <ele>465</ele>
        <time>2018-12-09T10:33:49Z</time>
      </trkpt>
      <trkpt lat="43.56231" lon="6.44622">
        <ele>464</ele>
        <time>2018-12-09T10:33:58Z</time>
      </trkpt>
      <trkpt lat="43.56225" lon="6.44617">
        <ele>462</ele>
        <time>2018-12-09T10:34:11Z</time>
      </trkpt>
      <trkpt lat="43.5622" lon="6.4461">
        <ele>460</ele>
        <time>2018-12-09T10:34:20Z</time>
      </trkpt>
      <trkpt lat="43.56214" lon="6.44602">
        <ele>459</ele>
        <time>2018-12-09T10:34:29Z</time>
      </trkpt>
      <trkpt lat="43.56206" lon="6.44593">
        <ele>459</ele>
        <time>2018-12-09T10:34:38Z</time>
      </trkpt>
      <trkpt lat="43.56202" lon="6.44583">
        <ele>457</ele>
        <time>2018-12-09T10:34:47Z</time>
      </trkpt>
      <trkpt lat="43.56197" lon="6.44574">
        <ele>456</ele>
        <time>2018-12-09T10:34:58Z</time>
      </trkpt>
      <trkpt lat="43.5619" lon="6.44558">
        <ele>455</ele>
        <time>2018-12-09T10:35:16Z</time>
      </trkpt>
      <trkpt lat="43.56189" lon="6.44546">
        <ele>455</ele>
        <time>2018-12-09T10:35:26Z</time>
      </trkpt>
      <trkpt lat="43.5619" lon="6.44534">
        <ele>455</ele>
        <time>2018-12-09T10:35:38Z</time>
      </trkpt>
      <trkpt lat="43.56186" lon="6.44526">
        <ele>454</ele>
        <time>2018-12-09T10:35:48Z</time>
      </trkpt>
      <trkpt lat="43.56188" lon="6.44514">
        <ele>453</ele>
        <time>2018-12-09T10:35:58Z</time>
      </trkpt>
      <trkpt lat="43.56188" lon="6.44502">
        <ele>453</ele>
        <time>2018-12-09T10:36:10Z</time>
      </trkpt>
      <trkpt lat="43.56182" lon="6.44471">
        <ele>451</ele>
        <time>2018-12-09T10:36:40Z</time>
      </trkpt>
      <trkpt lat="43.56187" lon="6.44462">
        <ele>451</ele>
        <time>2018-12-09T10:36:49Z</time>
      </trkpt>
      <trkpt lat="43.56183" lon="6.44453">
        <ele>451</ele>
        <time>2018-12-09T10:36:58Z</time>
      </trkpt>
      <trkpt lat="43.56181" lon="6.44442">
        <ele>448</ele>
        <time>2018-12-09T10:37:09Z</time>
      </trkpt>
      <trkpt lat="43.56182" lon="6.44432">
        <ele>447</ele>
        <time>2018-12-09T10:37:19Z</time>
      </trkpt>
      <trkpt lat="43.5619" lon="6.4442">
        <ele>445</ele>
        <time>2018-12-09T10:37:37Z</time>
      </trkpt>
      <trkpt lat="43.56199" lon="6.44411">
        <ele>445</ele>
        <time>2018-12-09T10:37:56Z</time>
      </trkpt>
      <trkpt lat="43.56203" lon="6.44397">
        <ele>444</ele>
        <time>2018-12-09T10:38:13Z</time>
      </trkpt>
      <trkpt lat="43.562" lon="6.44383">
        <ele>444</ele>
        <time>2018-12-09T10:38:27Z</time>
      </trkpt>
      <trkpt lat="43.56196" lon="6.44371">
        <ele>443</ele>
        <time>2018-12-09T10:38:37Z</time>
      </trkpt>
      <trkpt lat="43.56192" lon="6.44361">
        <ele>439</ele>
        <time>2018-12-09T10:38:53Z</time>
      </trkpt>
      <trkpt lat="43.56189" lon="6.44349">
        <ele>439</ele>
        <time>2018-12-09T10:39:07Z</time>
      </trkpt>
      <trkpt lat="43.56184" lon="6.44336">
        <ele>436</ele>
        <time>2018-12-09T10:39:24Z</time>
      </trkpt>
      <trkpt lat="43.5618" lon="6.44325">
        <ele>434</ele>
        <time>2018-12-09T10:39:41Z</time>
      </trkpt>
      <trkpt lat="43.56176" lon="6.44313">
        <ele>430</ele>
        <time>2018-12-09T10:40:08Z</time>
      </trkpt>
      <trkpt lat="43.5617" lon="6.44302">
        <ele>429</ele>
        <time>2018-12-09T10:40:21Z</time>
      </trkpt>
      <trkpt lat="43.56165" lon="6.44291">
        <ele>427</ele>
        <time>2018-12-09T10:40:38Z</time>
      </trkpt>
      <trkpt lat="43.56156" lon="6.44288">
        <ele>426</ele>
        <time>2018-12-09T10:40:50Z</time>
      </trkpt>
      <trkpt lat="43.56159" lon="6.44275">
        <ele>424</ele>
        <time>2018-12-09T10:41:25Z</time>
      </trkpt>
      <trkpt lat="43.56161" lon="6.44259">
        <ele>423</ele>
        <time>2018-12-09T10:41:54Z</time>
      </trkpt>
      <trkpt lat="43.56158" lon="6.44247">
        <ele>421</ele>
        <time>2018-12-09T10:42:11Z</time>
      </trkpt>
      <trkpt lat="43.56157" lon="6.44233">
        <ele>416</ele>
        <time>2018-12-09T10:42:33Z</time>
      </trkpt>
      <trkpt lat="43.56163" lon="6.44229">
        <ele>411</ele>
        <time>2018-12-09T10:43:04Z</time>
      </trkpt>
      <trkpt lat="43.56173" lon="6.4422">
        <ele>408</ele>
        <time>2018-12-09T10:44:47Z</time>
      </trkpt>
      <trkpt lat="43.56179" lon="6.44205">
        <ele>407</ele>
        <time>2018-12-09T10:45:00Z</time>
      </trkpt>
      <trkpt lat="43.56177" lon="6.44183">
        <ele>406</ele>
        <time>2018-12-09T10:45:15Z</time>
      </trkpt>
      <trkpt lat="43.56174" lon="6.44163">
        <ele>405</ele>
        <time>2018-12-09T10:45:32Z</time>
      </trkpt>
      <trkpt lat="43.56178" lon="6.44145">
        <ele>404</ele>
        <time>2018-12-09T10:45:44Z</time>
      </trkpt>
      <trkpt lat="43.56182" lon="6.4413">
        <ele>401</ele>
        <time>2018-12-09T10:45:55Z</time>
      </trkpt>
      <trkpt lat="43.56186" lon="6.44114">
        <ele>401</ele>
        <time>2018-12-09T10:46:06Z</time>
      </trkpt>
      <trkpt lat="43.56197" lon="6.44096">
        <ele>399</ele>
        <time>2018-12-09T10:46:20Z</time>
      </trkpt>
      <trkpt lat="43.56207" lon="6.44077">
        <ele>398</ele>
        <time>2018-12-09T10:46:34Z</time>
      </trkpt>
      <trkpt lat="43.56216" lon="6.44061">
        <ele>399</ele>
        <time>2018-12-09T10:46:49Z</time>
      </trkpt>
      <trkpt lat="43.56227" lon="6.44046">
        <ele>398</ele>
        <time>2018-12-09T10:47:01Z</time>
      </trkpt>
      <trkpt lat="43.56235" lon="6.44041">
        <ele>395</ele>
        <time>2018-12-09T10:47:17Z</time>
      </trkpt>
      <trkpt lat="43.56231" lon="6.44027">
        <ele>388</ele>
        <time>2018-12-09T10:48:11Z</time>
      </trkpt>
      <trkpt lat="43.56243" lon="6.44022">
        <ele>389</ele>
        <time>2018-12-09T10:48:50Z</time>
      </trkpt>
      <trkpt lat="43.56254" lon="6.44016">
        <ele>393</ele>
        <time>2018-12-09T10:49:08Z</time>
      </trkpt>
      <trkpt lat="43.56264" lon="6.44002">
        <ele>393</ele>
        <time>2018-12-09T10:49:22Z</time>
      </trkpt>
      <trkpt lat="43.56266" lon="6.4396">
        <ele>394</ele>
        <time>2018-12-09T10:50:04Z</time>
      </trkpt>
      <trkpt lat="43.56271" lon="6.43941">
        <ele>392</ele>
        <time>2018-12-09T10:50:20Z</time>
      </trkpt>
      <trkpt lat="43.56281" lon="6.43929">
        <ele>393</ele>
        <time>2018-12-09T10:50:37Z</time>
      </trkpt>
      <trkpt lat="43.56296" lon="6.43919">
        <ele>396</ele>
        <time>2018-12-09T10:51:06Z</time>
      </trkpt>
      <trkpt lat="43.56311" lon="6.43911">
        <ele>397</ele>
        <time>2018-12-09T10:51:20Z</time>
      </trkpt>
      <trkpt lat="43.56344" lon="6.43899">
        <ele>402</ele>
        <time>2018-12-09T10:52:04Z</time>
      </trkpt>
      <trkpt lat="43.56387" lon="6.43878">
        <ele>401</ele>
        <time>2018-12-09T10:52:52Z</time>
      </trkpt>
      <trkpt lat="43.56414" lon="6.43855">
        <ele>398</ele>
        <time>2018-12-09T10:53:45Z</time>
      </trkpt>
      <trkpt lat="43.56441" lon="6.43831">
        <ele>401</ele>
        <time>2018-12-09T10:54:24Z</time>
      </trkpt>
      <trkpt lat="43.56457" lon="6.43824">
        <ele>401</ele>
        <time>2018-12-09T10:54:43Z</time>
      </trkpt>
      <trkpt lat="43.56465" lon="6.43808">
        <ele>398</ele>
        <time>2018-12-09T10:54:57Z</time>
      </trkpt>
      <trkpt lat="43.56461" lon="6.43797">
        <ele>390</ele>
        <time>2018-12-09T10:55:36Z</time>
      </trkpt>
      <trkpt lat="43.56456" lon="6.43789">
        <ele>390</ele>
        <time>2018-12-09T10:55:43Z</time>
      </trkpt>
      <trkpt lat="43.56441" lon="6.43797">
        <ele>384</ele>
        <time>2018-12-09T10:56:06Z</time>
      </trkpt>
      <trkpt lat="43.56438" lon="6.43787">
        <ele>380</ele>
        <time>2018-12-09T10:56:26Z</time>
      </trkpt>
      <trkpt lat="43.56429" lon="6.43785">
        <ele>380</ele>
        <time>2018-12-09T10:56:36Z</time>
      </trkpt>
      <trkpt lat="43.56421" lon="6.43784">
        <ele>379</ele>
        <time>2018-12-09T10:56:50Z</time>
      </trkpt>
      <trkpt lat="43.56415" lon="6.43775">
        <ele>380</ele>
        <time>2018-12-09T10:57:00Z</time>
      </trkpt>
      <trkpt lat="43.56407" lon="6.43765">
        <ele>378</ele>
        <time>2018-12-09T10:57:14Z</time>
      </trkpt>
      <trkpt lat="43.56397" lon="6.43763">
        <ele>376</ele>
        <time>2018-12-09T10:57:28Z</time>
      </trkpt>
      <trkpt lat="43.56388" lon="6.43765">
        <ele>372</ele>
        <time>2018-12-09T10:57:43Z</time>
      </trkpt>
      <trkpt lat="43.56382" lon="6.43763">
        <ele>370</ele>
        <time>2018-12-09T10:57:51Z</time>
      </trkpt>
      <trkpt lat="43.56387" lon="6.43754">
        <ele>368</ele>
        <time>2018-12-09T10:58:08Z</time>
      </trkpt>
      <trkpt lat="43.56396" lon="6.4375">
        <ele>367</ele>
        <time>2018-12-09T10:58:20Z</time>
      </trkpt>
      <trkpt lat="43.56405" lon="6.43743">
        <ele>365</ele>
        <time>2018-12-09T10:58:29Z</time>
      </trkpt>
      <trkpt lat="43.5641" lon="6.43733">
        <ele>365</ele>
        <time>2018-12-09T10:58:37Z</time>
      </trkpt>
      <trkpt lat="43.56427" lon="6.4369">
        <ele>368</ele>
        <time>2018-12-09T10:59:14Z</time>
      </trkpt>
      <trkpt lat="43.56436" lon="6.43668">
        <ele>367</ele>
        <time>2018-12-09T10:59:32Z</time>
      </trkpt>
      <trkpt lat="43.56437" lon="6.43656">
        <ele>367</ele>
        <time>2018-12-09T10:59:41Z</time>
      </trkpt>
      <trkpt lat="43.56443" lon="6.43632">
        <ele>368</ele>
        <time>2018-12-09T10:59:58Z</time>
      </trkpt>
      <trkpt lat="43.56442" lon="6.43618">
        <ele>368</ele>
        <time>2018-12-09T11:00:08Z</time>
      </trkpt>
      <trkpt lat="43.56446" lon="6.43605">
        <ele>367</ele>
        <time>2018-12-09T11:00:17Z</time>
      </trkpt>
      <trkpt lat="43.56447" lon="6.43595">
        <ele>366</ele>
        <time>2018-12-09T11:00:29Z</time>
      </trkpt>
      <trkpt lat="43.56444" lon="6.43588">
        <ele>365</ele>
        <time>2018-12-09T11:01:46Z</time>
      </trkpt>
      <trkpt lat="43.56408" lon="6.43576">
        <ele>363</ele>
        <time>2018-12-09T11:02:21Z</time>
      </trkpt>
      <trkpt lat="43.564" lon="6.43573">
        <ele>363</ele>
        <time>2018-12-09T11:02:28Z</time>
      </trkpt>
      <trkpt lat="43.56399" lon="6.43561">
        <ele>364</ele>
        <time>2018-12-09T11:02:37Z</time>
      </trkpt>
      <trkpt lat="43.56402" lon="6.43551">
        <ele>365</ele>
        <time>2018-12-09T11:02:45Z</time>
      </trkpt>
      <trkpt lat="43.56404" lon="6.43532">
        <ele>365</ele>
        <time>2018-12-09T11:02:58Z</time>
      </trkpt>
      <trkpt lat="43.56405" lon="6.43526">
        <ele>365</ele>
        <time>2018-12-09T11:03:15Z</time>
      </trkpt>
      <trkpt lat="43.56402" lon="6.4349">
        <ele>364</ele>
        <time>2018-12-09T11:03:42Z</time>
      </trkpt>
      <trkpt lat="43.56401" lon="6.4348">
        <ele>364</ele>
        <time>2018-12-09T11:03:51Z</time>
      </trkpt>
      <trkpt lat="43.56398" lon="6.43467">
        <ele>364</ele>
        <time>2018-12-09T11:03:58Z</time>
      </trkpt>
      <trkpt lat="43.56396" lon="6.43456">
        <ele>364</ele>
        <time>2018-12-09T11:04:06Z</time>
      </trkpt>
      <trkpt lat="43.56394" lon="6.43445">
        <ele>364</ele>
        <time>2018-12-09T11:04:13Z</time>
      </trkpt>
      <trkpt lat="43.5639" lon="6.43428">
        <ele>365</ele>
        <time>2018-12-09T11:04:25Z</time>
      </trkpt>
      <trkpt lat="43.56385" lon="6.43409">
        <ele>364</ele>
        <time>2018-12-09T11:04:38Z</time>
      </trkpt>
      <trkpt lat="43.56378" lon="6.43406">
        <ele>363</ele>
        <time>2018-12-09T11:04:47Z</time>
      </trkpt>
      <trkpt lat="43.5637" lon="6.43408">
        <ele>362</ele>
        <time>2018-12-09T11:04:55Z</time>
      </trkpt>
      <trkpt lat="43.56362" lon="6.43401">
        <ele>362</ele>
        <time>2018-12-09T11:05:02Z</time>
      </trkpt>
      <trkpt lat="43.56357" lon="6.43379">
        <ele>360</ele>
        <time>2018-12-09T11:05:18Z</time>
      </trkpt>
      <trkpt lat="43.56356" lon="6.43366">
        <ele>359</ele>
        <time>2018-12-09T11:05:26Z</time>
      </trkpt>
      <trkpt lat="43.56355" lon="6.43352">
        <ele>359</ele>
        <time>2018-12-09T11:05:34Z</time>
      </trkpt>
      <trkpt lat="43.56354" lon="6.43342">
        <ele>359</ele>
        <time>2018-12-09T11:05:41Z</time>
      </trkpt>
      <trkpt lat="43.56349" lon="6.43321">
        <ele>357</ele>
        <time>2018-12-09T11:05:54Z</time>
      </trkpt>
      <trkpt lat="43.56346" lon="6.43311">
        <ele>356</ele>
        <time>2018-12-09T11:06:01Z</time>
      </trkpt>
      <trkpt lat="43.56332" lon="6.43286">
        <ele>352</ele>
        <time>2018-12-09T11:06:23Z</time>
      </trkpt>
      <trkpt lat="43.56325" lon="6.43277">
        <ele>351</ele>
        <time>2018-12-09T11:06:33Z</time>
      </trkpt>
      <trkpt lat="43.56319" lon="6.43267">
        <ele>350</ele>
        <time>2018-12-09T11:06:41Z</time>
      </trkpt>
      <trkpt lat="43.56312" lon="6.43259">
        <ele>350</ele>
        <time>2018-12-09T11:06:48Z</time>
      </trkpt>
      <trkpt lat="43.56305" lon="6.43262">
        <ele>348</ele>
        <time>2018-12-09T11:06:55Z</time>
      </trkpt>
      <trkpt lat="43.56307" lon="6.43283">
        <ele>348</ele>
        <time>2018-12-09T11:07:10Z</time>
      </trkpt>
      <trkpt lat="43.56312" lon="6.43306">
        <ele>346</ele>
        <time>2018-12-09T11:07:25Z</time>
      </trkpt>
      <trkpt lat="43.56311" lon="6.43318">
        <ele>346</ele>
        <time>2018-12-09T11:07:36Z</time>
      </trkpt>
      <trkpt lat="43.56308" lon="6.43344">
        <ele>345</ele>
        <time>2018-12-09T11:07:51Z</time>
      </trkpt>
      <trkpt lat="43.56302" lon="6.43366">
        <ele>343</ele>
        <time>2018-12-09T11:08:05Z</time>
      </trkpt>
      <trkpt lat="43.56273" lon="6.43412">
        <ele>341</ele>
        <time>2018-12-09T11:08:40Z</time>
      </trkpt>
      <trkpt lat="43.5624" lon="6.43437">
        <ele>338</ele>
        <time>2018-12-09T11:09:15Z</time>
      </trkpt>
      <trkpt lat="43.56233" lon="6.43441">
        <ele>336</ele>
        <time>2018-12-09T11:09:25Z</time>
      </trkpt>
      <trkpt lat="43.56228" lon="6.43447">
        <ele>336</ele>
        <time>2018-12-09T11:09:33Z</time>
      </trkpt>
      <trkpt lat="43.56216" lon="6.43461">
        <ele>334</ele>
        <time>2018-12-09T11:09:49Z</time>
      </trkpt>
      <trkpt lat="43.56209" lon="6.43465">
        <ele>333</ele>
        <time>2018-12-09T11:09:56Z</time>
      </trkpt>
      <trkpt lat="43.56198" lon="6.43477">
        <ele>331</ele>
        <time>2018-12-09T11:10:10Z</time>
      </trkpt>
      <trkpt lat="43.56181" lon="6.4349">
        <ele>326</ele>
        <time>2018-12-09T11:10:29Z</time>
      </trkpt>
      <trkpt lat="43.5616" lon="6.43499">
        <ele>321</ele>
        <time>2018-12-09T11:10:49Z</time>
      </trkpt>
      <trkpt lat="43.56152" lon="6.43496">
        <ele>321</ele>
        <time>2018-12-09T11:10:57Z</time>
      </trkpt>
      <trkpt lat="43.56144" lon="6.43495">
        <ele>320</ele>
        <time>2018-12-09T11:11:04Z</time>
      </trkpt>
      <trkpt lat="43.56127" lon="6.43493">
        <ele>318</ele>
        <time>2018-12-09T11:11:20Z</time>
      </trkpt>
      <trkpt lat="43.5612" lon="6.43496">
        <ele>318</ele>
        <time>2018-12-09T11:11:27Z</time>
      </trkpt>
      <trkpt lat="43.56112" lon="6.43496">
        <ele>317</ele>
        <time>2018-12-09T11:11:33Z</time>
      </trkpt>
      <trkpt lat="43.56102" lon="6.43483">
        <ele>318</ele>
        <time>2018-12-09T11:11:46Z</time>
      </trkpt>
      <trkpt lat="43.56097" lon="6.43465">
        <ele>319</ele>
        <time>2018-12-09T11:12:02Z</time>
      </trkpt>
      <trkpt lat="43.56095" lon="6.43457">
        <ele>319</ele>
        <time>2018-12-09T11:12:11Z</time>
      </trkpt>
      <trkpt lat="43.56092" lon="6.43445">
        <ele>319</ele>
        <time>2018-12-09T11:12:20Z</time>
      </trkpt>
      <trkpt lat="43.56089" lon="6.43434">
        <ele>319</ele>
        <time>2018-12-09T11:12:28Z</time>
      </trkpt>
      <trkpt lat="43.56088" lon="6.43389">
        <ele>318</ele>
        <time>2018-12-09T11:13:03Z</time>
      </trkpt>
      <trkpt lat="43.56089" lon="6.43378">
        <ele>317</ele>
        <time>2018-12-09T11:13:15Z</time>
      </trkpt>
      <trkpt lat="43.56089" lon="6.4337">
        <ele>315</ele>
        <time>2018-12-09T11:13:36Z</time>
      </trkpt>
      <trkpt lat="43.56095" lon="6.43367">
        <ele>312</ele>
        <time>2018-12-09T11:14:40Z</time>
      </trkpt>
      <trkpt lat="43.56102" lon="6.43366">
        <ele>312</ele>
        <time>2018-12-09T11:14:48Z</time>
      </trkpt>
      <trkpt lat="43.5611" lon="6.43363">
        <ele>314</ele>
        <time>2018-12-09T11:14:56Z</time>
      </trkpt>
      <trkpt lat="43.56126" lon="6.43359">
        <ele>316</ele>
        <time>2018-12-09T11:15:10Z</time>
      </trkpt>
      <trkpt lat="43.56137" lon="6.43345">
        <ele>315</ele>
        <time>2018-12-09T11:15:23Z</time>
      </trkpt>
      <trkpt lat="43.56146" lon="6.43325">
        <ele>316</ele>
        <time>2018-12-09T11:15:37Z</time>
      </trkpt>
      <trkpt lat="43.56168" lon="6.43282">
        <ele>315</ele>
        <time>2018-12-09T11:16:11Z</time>
      </trkpt>
      <trkpt lat="43.56191" lon="6.43252">
        <ele>317</ele>
        <time>2018-12-09T11:16:46Z</time>
      </trkpt>
      <trkpt lat="43.56209" lon="6.43226">
        <ele>320</ele>
        <time>2018-12-09T11:17:11Z</time>
      </trkpt>
      <trkpt lat="43.56212" lon="6.43216">
        <ele>321</ele>
        <time>2018-12-09T11:17:18Z</time>
      </trkpt>
      <trkpt lat="43.56212" lon="6.43204">
        <ele>321</ele>
        <time>2018-12-09T11:17:26Z</time>
      </trkpt>
      <trkpt lat="43.56215" lon="6.43195">
        <ele>321</ele>
        <time>2018-12-09T11:17:34Z</time>
      </trkpt>
      <trkpt lat="43.56214" lon="6.43176">
        <ele>321</ele>
        <time>2018-12-09T11:17:55Z</time>
      </trkpt>
      <trkpt lat="43.56216" lon="6.43165">
        <ele>321</ele>
        <time>2018-12-09T11:18:03Z</time>
      </trkpt>
      <trkpt lat="43.56214" lon="6.43156">
        <ele>321</ele>
        <time>2018-12-09T11:18:09Z</time>
      </trkpt>
      <trkpt lat="43.56212" lon="6.4315">
        <ele>321</ele>
        <time>2018-12-09T11:18:38Z</time>
      </trkpt>
      <trkpt lat="43.56215" lon="6.43145">
        <ele>324</ele>
        <time>2018-12-09T11:22:27Z</time>
      </trkpt>
      <trkpt lat="43.56213" lon="6.43138">
        <ele>324</ele>
        <time>2018-12-09T11:25:13Z</time>
      </trkpt>
      <trkpt lat="43.56211" lon="6.43136">
        <ele>324</ele>
        <time>2018-12-09T11:26:11Z</time>
      </trkpt>
      <trkpt lat="43.56211" lon="6.43139">
        <ele>322</ele>
        <time>2018-12-09T11:55:41Z</time>
      </trkpt>
      <trkpt lat="43.56212" lon="6.43141">
        <ele>321</ele>
        <time>2018-12-09T11:57:00Z</time>
      </trkpt>
      <trkpt lat="43.56211" lon="6.43145">
        <ele>322</ele>
        <time>2018-12-09T12:00:45Z</time>
      </trkpt>
      <trkpt lat="43.56215" lon="6.43145">
        <ele>322</ele>
        <time>2018-12-09T12:01:56Z</time>
      </trkpt>
      <trkpt lat="43.56213" lon="6.43153">
        <ele>322</ele>
        <time>2018-12-09T12:03:36Z</time>
      </trkpt>
      <trkpt lat="43.56217" lon="6.43171">
        <ele>323</ele>
        <time>2018-12-09T12:03:48Z</time>
      </trkpt>
      <trkpt lat="43.56217" lon="6.43161">
        <ele>320</ele>
        <time>2018-12-09T12:05:17Z</time>
      </trkpt>
      <trkpt lat="43.56216" lon="6.43152">
        <ele>321</ele>
        <time>2018-12-09T12:05:24Z</time>
      </trkpt>
      <trkpt lat="43.56216" lon="6.43146">
        <ele>321</ele>
        <time>2018-12-09T12:05:35Z</time>
      </trkpt>
      <trkpt lat="43.56211" lon="6.43143">
        <ele>321</ele>
        <time>2018-12-09T12:07:14Z</time>
      </trkpt>
      <trkpt lat="43.56212" lon="6.43135">
        <ele>321</ele>
        <time>2018-12-09T12:07:46Z</time>
      </trkpt>
      <trkpt lat="43.56215" lon="6.43125">
        <ele>322</ele>
        <time>2018-12-09T12:13:38Z</time>
      </trkpt>
      <trkpt lat="43.56216" lon="6.43117">
        <ele>323</ele>
        <time>2018-12-09T12:13:45Z</time>
      </trkpt>
      <trkpt lat="43.56214" lon="6.43108">
        <ele>323</ele>
        <time>2018-12-09T12:13:52Z</time>
      </trkpt>
      <trkpt lat="43.56207" lon="6.43073">
        <ele>323</ele>
        <time>2018-12-09T12:14:23Z</time>
      </trkpt>
      <trkpt lat="43.56197" lon="6.43052">
        <ele>322</ele>
        <time>2018-12-09T12:14:39Z</time>
      </trkpt>
      <trkpt lat="43.56191" lon="6.43047">
        <ele>321</ele>
        <time>2018-12-09T12:14:45Z</time>
      </trkpt>
      <trkpt lat="43.56186" lon="6.43048">
        <ele>321</ele>
        <time>2018-12-09T12:14:50Z</time>
      </trkpt>
      <trkpt lat="43.56184" lon="6.43059">
        <ele>320</ele>
        <time>2018-12-09T12:15:02Z</time>
      </trkpt>
      <trkpt lat="43.56185" lon="6.43069">
        <ele>320</ele>
        <time>2018-12-09T12:15:10Z</time>
      </trkpt>
      <trkpt lat="43.56184" lon="6.43099">
        <ele>321</ele>
        <time>2018-12-09T12:15:31Z</time>
      </trkpt>
      <trkpt lat="43.56185" lon="6.43109">
        <ele>321</ele>
        <time>2018-12-09T12:15:37Z</time>
      </trkpt>
      <trkpt lat="43.56183" lon="6.4312">
        <ele>321</ele>
        <time>2018-12-09T12:15:45Z</time>
      </trkpt>
      <trkpt lat="43.56187" lon="6.43154">
        <ele>321</ele>
        <time>2018-12-09T12:16:08Z</time>
      </trkpt>
      <trkpt lat="43.56181" lon="6.43157">
        <ele>321</ele>
        <time>2018-12-09T12:16:16Z</time>
      </trkpt>
      <trkpt lat="43.56173" lon="6.43152">
        <ele>320</ele>
        <time>2018-12-09T12:16:23Z</time>
      </trkpt>
      <trkpt lat="43.56161" lon="6.43152">
        <ele>319</ele>
        <time>2018-12-09T12:16:37Z</time>
      </trkpt>
      <trkpt lat="43.56154" lon="6.43154">
        <ele>319</ele>
        <time>2018-12-09T12:16:45Z</time>
      </trkpt>
      <trkpt lat="43.56149" lon="6.43152">
        <ele>318</ele>
        <time>2018-12-09T12:17:02Z</time>
      </trkpt>
      <trkpt lat="43.56144" lon="6.43148">
        <ele>316</ele>
        <time>2018-12-09T12:17:08Z</time>
      </trkpt>
      <trkpt lat="43.56137" lon="6.43135">
        <ele>310</ele>
        <time>2018-12-09T12:17:37Z</time>
      </trkpt>
      <trkpt lat="43.56136" lon="6.43126">
        <ele>310</ele>
        <time>2018-12-09T12:17:56Z</time>
      </trkpt>
      <trkpt lat="43.56136" lon="6.43117">
        <ele>311</ele>
        <time>2018-12-09T12:18:03Z</time>
      </trkpt>
      <trkpt lat="43.56139" lon="6.43107">
        <ele>311</ele>
        <time>2018-12-09T12:18:12Z</time>
      </trkpt>
      <trkpt lat="43.56139" lon="6.43096">
        <ele>312</ele>
        <time>2018-12-09T12:18:19Z</time>
      </trkpt>
      <trkpt lat="43.56142" lon="6.43087">
        <ele>312</ele>
        <time>2018-12-09T12:18:26Z</time>
      </trkpt>
      <trkpt lat="43.56145" lon="6.43078">
        <ele>312</ele>
        <time>2018-12-09T12:18:33Z</time>
      </trkpt>
      <trkpt lat="43.56146" lon="6.43049">
        <ele>310</ele>
        <time>2018-12-09T12:18:56Z</time>
      </trkpt>
      <trkpt lat="43.56143" lon="6.43041">
        <ele>310</ele>
        <time>2018-12-09T12:19:03Z</time>
      </trkpt>
      <trkpt lat="43.56139" lon="6.43033">
        <ele>309</ele>
        <time>2018-12-09T12:19:15Z</time>
      </trkpt>
      <trkpt lat="43.56136" lon="6.43024">
        <ele>308</ele>
        <time>2018-12-09T12:19:22Z</time>
      </trkpt>
      <trkpt lat="43.56126" lon="6.43014">
        <ele>306</ele>
        <time>2018-12-09T12:19:36Z</time>
      </trkpt>
      <trkpt lat="43.56122" lon="6.43009">
        <ele>305</ele>
        <time>2018-12-09T12:19:43Z</time>
      </trkpt>
      <trkpt lat="43.56116" lon="6.4301">
        <ele>305</ele>
        <time>2018-12-09T12:19:50Z</time>
      </trkpt>
      <trkpt lat="43.56095" lon="6.43016">
        <ele>302</ele>
        <time>2018-12-09T12:20:18Z</time>
      </trkpt>
      <trkpt lat="43.56088" lon="6.43017">
        <ele>301</ele>
        <time>2018-12-09T12:20:27Z</time>
      </trkpt>
      <trkpt lat="43.56086" lon="6.43028">
        <ele>299</ele>
        <time>2018-12-09T12:20:55Z</time>
      </trkpt>
      <trkpt lat="43.56079" lon="6.43047">
        <ele>300</ele>
        <time>2018-12-09T12:21:09Z</time>
      </trkpt>
      <trkpt lat="43.56076" lon="6.43057">
        <ele>300</ele>
        <time>2018-12-09T12:21:17Z</time>
      </trkpt>
      <trkpt lat="43.56068" lon="6.43075">
        <ele>302</ele>
        <time>2018-12-09T12:21:33Z</time>
      </trkpt>
      <trkpt lat="43.56064" lon="6.43082">
        <ele>301</ele>
        <time>2018-12-09T12:21:41Z</time>
      </trkpt>
      <trkpt lat="43.56057" lon="6.43074">
        <ele>299</ele>
        <time>2018-12-09T12:22:03Z</time>
      </trkpt>
      <trkpt lat="43.56049" lon="6.43077">
        <ele>302</ele>
        <time>2018-12-09T12:22:44Z</time>
      </trkpt>
      <trkpt lat="43.56024" lon="6.43082">
        <ele>302</ele>
        <time>2018-12-09T12:23:15Z</time>
      </trkpt>
      <trkpt lat="43.56021" lon="6.43089">
        <ele>301</ele>
        <time>2018-12-09T12:23:22Z</time>
      </trkpt>
      <trkpt lat="43.5602" lon="6.43099">
        <ele>299</ele>
        <time>2018-12-09T12:23:47Z</time>
      </trkpt>
      <trkpt lat="43.56024" lon="6.43092">
        <ele>296</ele>
        <time>2018-12-09T12:28:51Z</time>
      </trkpt>
      <trkpt lat="43.56032" lon="6.43084">
        <ele>296</ele>
        <time>2018-12-09T12:29:07Z</time>
      </trkpt>
      <trkpt lat="43.56038" lon="6.4308">
        <ele>298</ele>
        <time>2018-12-09T12:29:21Z</time>
      </trkpt>
      <trkpt lat="43.56046" lon="6.43082">
        <ele>299</ele>
        <time>2018-12-09T12:30:11Z</time>
      </trkpt>
      <trkpt lat="43.56055" lon="6.4308">
        <ele>300</ele>
        <time>2018-12-09T12:30:27Z</time>
      </trkpt>
      <trkpt lat="43.56063" lon="6.4309">
        <ele>300</ele>
        <time>2018-12-09T12:30:40Z</time>
      </trkpt>
      <trkpt lat="43.5606" lon="6.43094">
        <ele>296</ele>
        <time>2018-12-09T12:31:48Z</time>
      </trkpt>
      <trkpt lat="43.5606" lon="6.43101">
        <ele>294</ele>
        <time>2018-12-09T12:32:36Z</time>
      </trkpt>
      <trkpt lat="43.56062" lon="6.43108">
        <ele>294</ele>
        <time>2018-12-09T12:32:49Z</time>
      </trkpt>
      <trkpt lat="43.56065" lon="6.43116">
        <ele>297</ele>
        <time>2018-12-09T12:32:56Z</time>
      </trkpt>
      <trkpt lat="43.56069" lon="6.43122">
        <ele>298</ele>
        <time>2018-12-09T12:33:06Z</time>
      </trkpt>
      <trkpt lat="43.56069" lon="6.43129">
        <ele>298</ele>
        <time>2018-12-09T12:35:42Z</time>
      </trkpt>
      <trkpt lat="43.56066" lon="6.43136">
        <ele>298</ele>
        <time>2018-12-09T12:36:01Z</time>
      </trkpt>
      <trkpt lat="43.56068" lon="6.43145">
        <ele>300</ele>
        <time>2018-12-09T12:36:13Z</time>
      </trkpt>
      <trkpt lat="43.56066" lon="6.43154">
        <ele>301</ele>
        <time>2018-12-09T12:36:24Z</time>
      </trkpt>
      <trkpt lat="43.56061" lon="6.4316">
        <ele>303</ele>
        <time>2018-12-09T12:36:32Z</time>
      </trkpt>
      <trkpt lat="43.56061" lon="6.43171">
        <ele>304</ele>
        <time>2018-12-09T12:36:41Z</time>
      </trkpt>
      <trkpt lat="43.5606" lon="6.43184">
        <ele>307</ele>
        <time>2018-12-09T12:37:11Z</time>
      </trkpt>
      <trkpt lat="43.56053" lon="6.43189">
        <ele>309</ele>
        <time>2018-12-09T12:37:43Z</time>
      </trkpt>
      <trkpt lat="43.56048" lon="6.43197">
        <ele>313</ele>
        <time>2018-12-09T12:38:33Z</time>
      </trkpt>
      <trkpt lat="43.56051" lon="6.43205">
        <ele>312</ele>
        <time>2018-12-09T12:38:50Z</time>
      </trkpt>
      <trkpt lat="43.56048" lon="6.43212">
        <ele>304</ele>
        <time>2018-12-09T12:39:17Z</time>
      </trkpt>
      <trkpt lat="43.56046" lon="6.43221">
        <ele>303</ele>
        <time>2018-12-09T12:39:31Z</time>
      </trkpt>
      <trkpt lat="43.56045" lon="6.43233">
        <ele>310</ele>
        <time>2018-12-09T12:40:19Z</time>
      </trkpt>
      <trkpt lat="43.56038" lon="6.4324">
        <ele>312</ele>
        <time>2018-12-09T12:40:38Z</time>
      </trkpt>
      <trkpt lat="43.56034" lon="6.43252">
        <ele>321</ele>
        <time>2018-12-09T12:41:24Z</time>
      </trkpt>
      <trkpt lat="43.56029" lon="6.43263">
        <ele>322</ele>
        <time>2018-12-09T12:41:43Z</time>
      </trkpt>
      <trkpt lat="43.56029" lon="6.43278">
        <ele>320</ele>
        <time>2018-12-09T12:42:24Z</time>
      </trkpt>
      <trkpt lat="43.56022" lon="6.4328">
        <ele>320</ele>
        <time>2018-12-09T12:42:39Z</time>
      </trkpt>
      <trkpt lat="43.56019" lon="6.43282">
        <ele>318</ele>
        <time>2018-12-09T12:43:16Z</time>
      </trkpt>
      <trkpt lat="43.56011" lon="6.43277">
        <ele>318</ele>
        <time>2018-12-09T12:43:45Z</time>
      </trkpt>
      <trkpt lat="43.56004" lon="6.43279">
        <ele>320</ele>
        <time>2018-12-09T12:43:57Z</time>
      </trkpt>
      <trkpt lat="43.56" lon="6.43289">
        <ele>318</ele>
        <time>2018-12-09T12:44:11Z</time>
      </trkpt>
      <trkpt lat="43.55996" lon="6.43298">
        <ele>314</ele>
        <time>2018-12-09T12:44:49Z</time>
      </trkpt>
      <trkpt lat="43.5599" lon="6.43302">
        <ele>318</ele>
        <time>2018-12-09T12:45:03Z</time>
      </trkpt>
      <trkpt lat="43.55993" lon="6.43304">
        <ele>315</ele>
        <time>2018-12-09T12:47:26Z</time>
      </trkpt>
      <trkpt lat="43.55988" lon="6.4331">
        <ele>315</ele>
        <time>2018-12-09T12:50:12Z</time>
      </trkpt>
      <trkpt lat="43.55987" lon="6.43324">
        <ele>315</ele>
        <time>2018-12-09T12:50:38Z</time>
      </trkpt>
      <trkpt lat="43.55997" lon="6.43328">
        <ele>313</ele>
        <time>2018-12-09T12:51:02Z</time>
      </trkpt>
      <trkpt lat="43.56003" lon="6.43322">
        <ele>311</ele>
        <time>2018-12-09T12:51:33Z</time>
      </trkpt>
      <trkpt lat="43.56006" lon="6.43335">
        <ele>312</ele>
        <time>2018-12-09T12:53:32Z</time>
      </trkpt>
      <trkpt lat="43.56009" lon="6.43343">
        <ele>310</ele>
        <time>2018-12-09T12:54:11Z</time>
      </trkpt>
      <trkpt lat="43.56014" lon="6.43346">
        <ele>309</ele>
        <time>2018-12-09T12:54:21Z</time>
      </trkpt>
      <trkpt lat="43.5602" lon="6.43346">
        <ele>310</ele>
        <time>2018-12-09T12:55:09Z</time>
      </trkpt>
      <trkpt lat="43.56021" lon="6.43355">
        <ele>309</ele>
        <time>2018-12-09T12:55:32Z</time>
      </trkpt>
      <trkpt lat="43.56018" lon="6.43361">
        <ele>310</ele>
        <time>2018-12-09T12:55:48Z</time>
      </trkpt>
      <trkpt lat="43.5602" lon="6.43373">
        <ele>310</ele>
        <time>2018-12-09T12:56:14Z</time>
      </trkpt>
      <trkpt lat="43.56028" lon="6.43395">
        <ele>310</ele>
        <time>2018-12-09T12:56:40Z</time>
      </trkpt>
      <trkpt lat="43.56021" lon="6.43387">
        <ele>309</ele>
        <time>2018-12-09T12:57:13Z</time>
      </trkpt>
      <trkpt lat="43.56006" lon="6.43381">
        <ele>308</ele>
        <time>2018-12-09T12:57:38Z</time>
      </trkpt>
      <trkpt lat="43.55999" lon="6.43378">
        <ele>308</ele>
        <time>2018-12-09T12:57:49Z</time>
      </trkpt>
      <trkpt lat="43.55991" lon="6.43374">
        <ele>307</ele>
        <time>2018-12-09T12:58:01Z</time>
      </trkpt>
      <trkpt lat="43.55981" lon="6.4337">
        <ele>306</ele>
        <time>2018-12-09T12:58:15Z</time>
      </trkpt>
      <trkpt lat="43.55967" lon="6.43365">
        <ele>305</ele>
        <time>2018-12-09T12:58:29Z</time>
      </trkpt>
      <trkpt lat="43.5596" lon="6.43355">
        <ele>304</ele>
        <time>2018-12-09T12:58:48Z</time>
      </trkpt>
      <trkpt lat="43.55953" lon="6.43353">
        <ele>302</ele>
        <time>2018-12-09T12:58:54Z</time>
      </trkpt>
      <trkpt lat="43.55947" lon="6.43359">
        <ele>300</ele>
        <time>2018-12-09T12:59:02Z</time>
      </trkpt>
      <trkpt lat="43.55952" lon="6.43372">
        <ele>298</ele>
        <time>2018-12-09T12:59:10Z</time>
      </trkpt>
      <trkpt lat="43.55955" lon="6.43387">
        <ele>292</ele>
        <time>2018-12-09T12:59:20Z</time>
      </trkpt>
      <trkpt lat="43.5596" lon="6.43403">
        <ele>290</ele>
        <time>2018-12-09T12:59:34Z</time>
      </trkpt>
      <trkpt lat="43.55968" lon="6.4342">
        <ele>287</ele>
        <time>2018-12-09T12:59:51Z</time>
      </trkpt>
      <trkpt lat="43.55958" lon="6.43425">
        <ele>287</ele>
        <time>2018-12-09T13:00:15Z</time>
      </trkpt>
      <trkpt lat="43.55954" lon="6.43437">
        <ele>287</ele>
        <time>2018-12-09T13:00:25Z</time>
      </trkpt>
      <trkpt lat="43.55954" lon="6.43449">
        <ele>286</ele>
        <time>2018-12-09T13:00:31Z</time>
      </trkpt>
      <trkpt lat="43.55949" lon="6.43453">
        <ele>282</ele>
        <time>2018-12-09T13:01:09Z</time>
      </trkpt>
      <trkpt lat="43.55946" lon="6.43443">
        <ele>282</ele>
        <time>2018-12-09T13:01:17Z</time>
      </trkpt>
      <trkpt lat="43.55945" lon="6.43432">
        <ele>278</ele>
        <time>2018-12-09T13:01:25Z</time>
      </trkpt>
      <trkpt lat="43.55939" lon="6.43418">
        <ele>276</ele>
        <time>2018-12-09T13:01:40Z</time>
      </trkpt>
      <trkpt lat="43.55929" lon="6.43403">
        <ele>275</ele>
        <time>2018-12-09T13:01:54Z</time>
      </trkpt>
      <trkpt lat="43.55907" lon="6.43402">
        <ele>273</ele>
        <time>2018-12-09T13:02:14Z</time>
      </trkpt>
      <trkpt lat="43.55896" lon="6.43398">
        <ele>269</ele>
        <time>2018-12-09T13:02:27Z</time>
      </trkpt>
      <trkpt lat="43.55898" lon="6.43387">
        <ele>269</ele>
        <time>2018-12-09T13:02:37Z</time>
      </trkpt>
      <trkpt lat="43.55899" lon="6.43377">
        <ele>266</ele>
        <time>2018-12-09T13:02:45Z</time>
      </trkpt>
      <trkpt lat="43.55898" lon="6.43364">
        <ele>265</ele>
        <time>2018-12-09T13:02:55Z</time>
      </trkpt>
      <trkpt lat="43.55896" lon="6.43351">
        <ele>265</ele>
        <time>2018-12-09T13:03:06Z</time>
      </trkpt>
      <trkpt lat="43.5589" lon="6.43341">
        <ele>262</ele>
        <time>2018-12-09T13:03:15Z</time>
      </trkpt>
      <trkpt lat="43.55888" lon="6.4333">
        <ele>261</ele>
        <time>2018-12-09T13:03:23Z</time>
      </trkpt>
      <trkpt lat="43.55885" lon="6.43322">
        <ele>257</ele>
        <time>2018-12-09T13:03:29Z</time>
      </trkpt>
      <trkpt lat="43.5588" lon="6.43314">
        <ele>256</ele>
        <time>2018-12-09T13:03:36Z</time>
      </trkpt>
      <trkpt lat="43.55878" lon="6.43295">
        <ele>248</ele>
        <time>2018-12-09T13:03:50Z</time>
      </trkpt>
      <trkpt lat="43.55868" lon="6.43285">
        <ele>248</ele>
        <time>2018-12-09T13:04:18Z</time>
      </trkpt>
      <trkpt lat="43.55864" lon="6.43279">
        <ele>248</ele>
        <time>2018-12-09T13:04:27Z</time>
      </trkpt>
      <trkpt lat="43.55859" lon="6.43276">
        <ele>249</ele>
        <time>2018-12-09T13:04:32Z</time>
      </trkpt>
      <trkpt lat="43.55848" lon="6.4327">
        <ele>249</ele>
        <time>2018-12-09T13:04:47Z</time>
      </trkpt>
      <trkpt lat="43.55841" lon="6.43273">
        <ele>249</ele>
        <time>2018-12-09T13:04:54Z</time>
      </trkpt>
      <trkpt lat="43.55838" lon="6.43281">
        <ele>248</ele>
        <time>2018-12-09T13:05:02Z</time>
      </trkpt>
      <trkpt lat="43.5584" lon="6.43296">
        <ele>248</ele>
        <time>2018-12-09T13:05:10Z</time>
      </trkpt>
      <trkpt lat="43.55835" lon="6.43305">
        <ele>245</ele>
        <time>2018-12-09T13:05:19Z</time>
      </trkpt>
      <trkpt lat="43.55829" lon="6.43303">
        <ele>244</ele>
        <time>2018-12-09T13:05:26Z</time>
      </trkpt>
      <trkpt lat="43.55821" lon="6.43285">
        <ele>241</ele>
        <time>2018-12-09T13:05:45Z</time>
      </trkpt>
      <trkpt lat="43.55815" lon="6.43278">
        <ele>238</ele>
        <time>2018-12-09T13:05:53Z</time>
      </trkpt>
      <trkpt lat="43.55806" lon="6.43266">
        <ele>235</ele>
        <time>2018-12-09T13:06:06Z</time>
      </trkpt>
      <trkpt lat="43.55803" lon="6.43252">
        <ele>234</ele>
        <time>2018-12-09T13:06:19Z</time>
      </trkpt>
      <trkpt lat="43.55804" lon="6.43244">
        <ele>232</ele>
        <time>2018-12-09T13:06:28Z</time>
      </trkpt>
      <trkpt lat="43.55802" lon="6.43236">
        <ele>231</ele>
        <time>2018-12-09T13:06:33Z</time>
      </trkpt>
      <trkpt lat="43.55801" lon="6.43229">
        <ele>228</ele>
        <time>2018-12-09T13:06:37Z</time>
      </trkpt>
      <trkpt lat="43.55795" lon="6.43224">
        <ele>227</ele>
        <time>2018-12-09T13:06:43Z</time>
      </trkpt>
      <trkpt lat="43.55788" lon="6.43223">
        <ele>228</ele>
        <time>2018-12-09T13:06:48Z</time>
      </trkpt>
      <trkpt lat="43.55772" lon="6.43243">
        <ele>228</ele>
        <time>2018-12-09T13:07:06Z</time>
      </trkpt>
      <trkpt lat="43.55768" lon="6.43249">
        <ele>227</ele>
        <time>2018-12-09T13:07:12Z</time>
      </trkpt>
      <trkpt lat="43.55742" lon="6.43278">
        <ele>229</ele>
        <time>2018-12-09T13:07:45Z</time>
      </trkpt>
      <trkpt lat="43.55733" lon="6.43292">
        <ele>229</ele>
        <time>2018-12-09T13:07:57Z</time>
      </trkpt>
      <trkpt lat="43.5573" lon="6.433">
        <ele>228</ele>
        <time>2018-12-09T13:08:02Z</time>
      </trkpt>
      <trkpt lat="43.5573" lon="6.4331">
        <ele>227</ele>
        <time>2018-12-09T13:08:08Z</time>
      </trkpt>
      <trkpt lat="43.55731" lon="6.43321">
        <ele>226</ele>
        <time>2018-12-09T13:08:14Z</time>
      </trkpt>
      <trkpt lat="43.55734" lon="6.43329">
        <ele>224</ele>
        <time>2018-12-09T13:08:21Z</time>
      </trkpt>
      <trkpt lat="43.55734" lon="6.43337">
        <ele>224</ele>
        <time>2018-12-09T13:08:33Z</time>
      </trkpt>
      <trkpt lat="43.55733" lon="6.43345">
        <ele>226</ele>
        <time>2018-12-09T13:09:14Z</time>
      </trkpt>
      <trkpt lat="43.55734" lon="6.43353">
        <ele>226</ele>
        <time>2018-12-09T13:10:12Z</time>
      </trkpt>
      <trkpt lat="43.55735" lon="6.43359">
        <ele>226</ele>
        <time>2018-12-09T13:10:29Z</time>
      </trkpt>
      <trkpt lat="43.55733" lon="6.43373">
        <ele>223</ele>
        <time>2018-12-09T13:10:47Z</time>
      </trkpt>
      <trkpt lat="43.55734" lon="6.43383">
        <ele>224</ele>
        <time>2018-12-09T13:10:54Z</time>
      </trkpt>
      <trkpt lat="43.55737" lon="6.43399">
        <ele>223</ele>
        <time>2018-12-09T13:11:17Z</time>
      </trkpt>
      <trkpt lat="43.55734" lon="6.43406">
        <ele>224</ele>
        <time>2018-12-09T13:11:37Z</time>
      </trkpt>
      <trkpt lat="43.55722" lon="6.43438">
        <ele>223</ele>
        <time>2018-12-09T13:12:02Z</time>
      </trkpt>
      <trkpt lat="43.55717" lon="6.43453">
        <ele>219</ele>
        <time>2018-12-09T13:12:15Z</time>
      </trkpt>
      <trkpt lat="43.55716" lon="6.43464">
        <ele>220</ele>
        <time>2018-12-09T13:12:22Z</time>
      </trkpt>
      <trkpt lat="43.55709" lon="6.43486">
        <ele>220</ele>
        <time>2018-12-09T13:12:36Z</time>
      </trkpt>
      <trkpt lat="43.55705" lon="6.43491">
        <ele>221</ele>
        <time>2018-12-09T13:12:46Z</time>
      </trkpt>
      <trkpt lat="43.55699" lon="6.43494">
        <ele>221</ele>
        <time>2018-12-09T13:12:51Z</time>
      </trkpt>
      <trkpt lat="43.55689" lon="6.43494">
        <ele>222</ele>
        <time>2018-12-09T13:13:02Z</time>
      </trkpt>
      <trkpt lat="43.55683" lon="6.43495">
        <ele>222</ele>
        <time>2018-12-09T13:13:09Z</time>
      </trkpt>
      <trkpt lat="43.55677" lon="6.43493">
        <ele>222</ele>
        <time>2018-12-09T13:13:14Z</time>
      </trkpt>
      <trkpt lat="43.55671" lon="6.43494">
        <ele>223</ele>
        <time>2018-12-09T13:13:21Z</time>
      </trkpt>
      <trkpt lat="43.55664" lon="6.43497">
        <ele>222</ele>
        <time>2018-12-09T13:13:27Z</time>
      </trkpt>
      <trkpt lat="43.55644" lon="6.43496">
        <ele>222</ele>
        <time>2018-12-09T13:13:47Z</time>
      </trkpt>
      <trkpt lat="43.5562" lon="6.43507">
        <ele>220</ele>
        <time>2018-12-09T13:14:14Z</time>
      </trkpt>
      <trkpt lat="43.55602" lon="6.43508">
        <ele>219</ele>
        <time>2018-12-09T13:14:32Z</time>
      </trkpt>
      <trkpt lat="43.55595" lon="6.4351">
        <ele>219</ele>
        <time>2018-12-09T13:14:38Z</time>
      </trkpt>
      <trkpt lat="43.55566" lon="6.43513">
        <ele>218</ele>
        <time>2018-12-09T13:15:06Z</time>
      </trkpt>
      <trkpt lat="43.55548" lon="6.43515">
        <ele>217</ele>
        <time>2018-12-09T13:15:22Z</time>
      </trkpt>
      <trkpt lat="43.55539" lon="6.43517">
        <ele>216</ele>
        <time>2018-12-09T13:15:32Z</time>
      </trkpt>
      <trkpt lat="43.55531" lon="6.43515">
        <ele>215</ele>
        <time>2018-12-09T13:15:40Z</time>
      </trkpt>
      <trkpt lat="43.55512" lon="6.43501">
        <ele>213</ele>
        <time>2018-12-09T13:16:08Z</time>
      </trkpt>
      <trkpt lat="43.55499" lon="6.43491">
        <ele>209</ele>
        <time>2018-12-09T13:16:22Z</time>
      </trkpt>
      <trkpt lat="43.55486" lon="6.4348">
        <ele>209</ele>
        <time>2018-12-09T13:16:36Z</time>
      </trkpt>
      <trkpt lat="43.5548" lon="6.43479">
        <ele>207</ele>
        <time>2018-12-09T13:16:46Z</time>
      </trkpt>
      <trkpt lat="43.55472" lon="6.43479">
        <ele>208</ele>
        <time>2018-12-09T13:18:36Z</time>
      </trkpt>
      <trkpt lat="43.55464" lon="6.43479">
        <ele>209</ele>
        <time>2018-12-09T13:18:43Z</time>
      </trkpt>
      <trkpt lat="43.55435" lon="6.43495">
        <ele>205</ele>
        <time>2018-12-09T13:19:14Z</time>
      </trkpt>
      <trkpt lat="43.55426" lon="6.43497">
        <ele>205</ele>
        <time>2018-12-09T13:19:23Z</time>
      </trkpt>
      <trkpt lat="43.55409" lon="6.43501">
        <ele>206</ele>
        <time>2018-12-09T13:19:41Z</time>
      </trkpt>
      <trkpt lat="43.55383" lon="6.43508">
        <ele>206</ele>
        <time>2018-12-09T13:20:06Z</time>
      </trkpt>
      <trkpt lat="43.5537" lon="6.43518">
        <ele>206</ele>
        <time>2018-12-09T13:20:20Z</time>
      </trkpt>
      <trkpt lat="43.55365" lon="6.43526">
        <ele>206</ele>
        <time>2018-12-09T13:20:26Z</time>
      </trkpt>
      <trkpt lat="43.55358" lon="6.43532">
        <ele>206</ele>
        <time>2018-12-09T13:20:33Z</time>
      </trkpt>
      <trkpt lat="43.55332" lon="6.43557">
        <ele>205</ele>
        <time>2018-12-09T13:21:03Z</time>
      </trkpt>
      <trkpt lat="43.55309" lon="6.43581">
        <ele>204</ele>
        <time>2018-12-09T13:22:13Z</time>
      </trkpt>
      <trkpt lat="43.55302" lon="6.43585">
        <ele>204</ele>
        <time>2018-12-09T13:22:20Z</time>
      </trkpt>
      <trkpt lat="43.55293" lon="6.43595">
        <ele>206</ele>
        <time>2018-12-09T13:22:32Z</time>
      </trkpt>
      <trkpt lat="43.55287" lon="6.43598">
        <ele>206</ele>
        <time>2018-12-09T13:22:39Z</time>
      </trkpt>
      <trkpt lat="43.55281" lon="6.43603">
        <ele>205</ele>
        <time>2018-12-09T13:22:47Z</time>
      </trkpt>
      <trkpt lat="43.55269" lon="6.43638">
        <ele>205</ele>
        <time>2018-12-09T13:23:16Z</time>
      </trkpt>
      <trkpt lat="43.55261" lon="6.43643">
        <ele>206</ele>
        <time>2018-12-09T13:23:30Z</time>
      </trkpt>
      <trkpt lat="43.55256" lon="6.43639">
        <ele>207</ele>
        <time>2018-12-09T13:23:52Z</time>
      </trkpt>
      <trkpt lat="43.55242" lon="6.43644">
        <ele>205</ele>
        <time>2018-12-09T13:24:07Z</time>
      </trkpt>
      <trkpt lat="43.55236" lon="6.43648">
        <ele>207</ele>
        <time>2018-12-09T13:24:22Z</time>
      </trkpt>
      <trkpt lat="43.55221" lon="6.43653">
        <ele>207</ele>
        <time>2018-12-09T13:24:41Z</time>
      </trkpt>
      <trkpt lat="43.55205" lon="6.43665">
        <ele>209</ele>
        <time>2018-12-09T13:24:58Z</time>
      </trkpt>
      <trkpt lat="43.55199" lon="6.4367">
        <ele>209</ele>
        <time>2018-12-09T13:25:06Z</time>
      </trkpt>
      <trkpt lat="43.55185" lon="6.43682">
        <ele>205</ele>
        <time>2018-12-09T13:25:30Z</time>
      </trkpt>
      <trkpt lat="43.55177" lon="6.43683">
        <ele>205</ele>
        <time>2018-12-09T13:25:39Z</time>
      </trkpt>
      <trkpt lat="43.5517" lon="6.43688">
        <ele>204</ele>
        <time>2018-12-09T13:25:57Z</time>
      </trkpt>
      <trkpt lat="43.55155" lon="6.43697">
        <ele>204</ele>
        <time>2018-12-09T13:26:16Z</time>
      </trkpt>
      <trkpt lat="43.5515" lon="6.43702">
        <ele>205</ele>
        <time>2018-12-09T13:26:23Z</time>
      </trkpt>
      <trkpt lat="43.55143" lon="6.43707">
        <ele>205</ele>
        <time>2018-12-09T13:26:31Z</time>
      </trkpt>
      <trkpt lat="43.55137" lon="6.43712">
        <ele>206</ele>
        <time>2018-12-09T13:26:39Z</time>
      </trkpt>
      <trkpt lat="43.55131" lon="6.43718">
        <ele>206</ele>
        <time>2018-12-09T13:26:49Z</time>
      </trkpt>
      <trkpt lat="43.55124" lon="6.43722">
        <ele>206</ele>
        <time>2018-12-09T13:26:58Z</time>
      </trkpt>
      <trkpt lat="43.55114" lon="6.43738">
        <ele>205</ele>
        <time>2018-12-09T13:27:14Z</time>
      </trkpt>
      <trkpt lat="43.55109" lon="6.43746">
        <ele>206</ele>
        <time>2018-12-09T13:27:23Z</time>
      </trkpt>
      <trkpt lat="43.55098" lon="6.43766">
        <ele>206</ele>
        <time>2018-12-09T13:27:38Z</time>
      </trkpt>
      <trkpt lat="43.55095" lon="6.43778">
        <ele>205</ele>
        <time>2018-12-09T13:27:52Z</time>
      </trkpt>
      <trkpt lat="43.55089" lon="6.43789">
        <ele>206</ele>
        <time>2018-12-09T13:28:02Z</time>
      </trkpt>
      <trkpt lat="43.55085" lon="6.43798">
        <ele>203</ele>
        <time>2018-12-09T13:28:12Z</time>
      </trkpt>
      <trkpt lat="43.55081" lon="6.43806">
        <ele>202</ele>
        <time>2018-12-09T13:28:23Z</time>
      </trkpt>
      <trkpt lat="43.55072" lon="6.43833">
        <ele>202</ele>
        <time>2018-12-09T13:28:48Z</time>
      </trkpt>
      <trkpt lat="43.55054" lon="6.43872">
        <ele>202</ele>
        <time>2018-12-09T13:29:23Z</time>
      </trkpt>
      <trkpt lat="43.55043" lon="6.43891">
        <ele>201</ele>
        <time>2018-12-09T13:29:37Z</time>
      </trkpt>
      <trkpt lat="43.55038" lon="6.43898">
        <ele>200</ele>
        <time>2018-12-09T13:29:45Z</time>
      </trkpt>
      <trkpt lat="43.55018" lon="6.43936">
        <ele>202</ele>
        <time>2018-12-09T13:30:17Z</time>
      </trkpt>
      <trkpt lat="43.54998" lon="6.43977">
        <ele>203</ele>
        <time>2018-12-09T13:30:53Z</time>
      </trkpt>
      <trkpt lat="43.54988" lon="6.43992">
        <ele>204</ele>
        <time>2018-12-09T13:31:18Z</time>
      </trkpt>
      <trkpt lat="43.54983" lon="6.44001">
        <ele>204</ele>
        <time>2018-12-09T13:31:26Z</time>
      </trkpt>
      <trkpt lat="43.54979" lon="6.44011">
        <ele>205</ele>
        <time>2018-12-09T13:31:34Z</time>
      </trkpt>
      <trkpt lat="43.5496" lon="6.44049">
        <ele>206</ele>
        <time>2018-12-09T13:32:06Z</time>
      </trkpt>
      <trkpt lat="43.54955" lon="6.44056">
        <ele>205</ele>
        <time>2018-12-09T13:32:14Z</time>
      </trkpt>
      <trkpt lat="43.54937" lon="6.4408">
        <ele>203</ele>
        <time>2018-12-09T13:32:52Z</time>
      </trkpt>
      <trkpt lat="43.54931" lon="6.44086">
        <ele>203</ele>
        <time>2018-12-09T13:33:04Z</time>
      </trkpt>
      <trkpt lat="43.54914" lon="6.441">
        <ele>204</ele>
        <time>2018-12-09T13:33:27Z</time>
      </trkpt>
      <trkpt lat="43.54907" lon="6.44107">
        <ele>205</ele>
        <time>2018-12-09T13:33:35Z</time>
      </trkpt>
      <trkpt lat="43.54887" lon="6.44121">
        <ele>204</ele>
        <time>2018-12-09T13:33:58Z</time>
      </trkpt>
      <trkpt lat="43.54881" lon="6.44127">
        <ele>203</ele>
        <time>2018-12-09T13:34:06Z</time>
      </trkpt>
      <trkpt lat="43.54875" lon="6.44131">
        <ele>203</ele>
        <time>2018-12-09T13:34:12Z</time>
      </trkpt>
      <trkpt lat="43.54856" lon="6.44144">
        <ele>203</ele>
        <time>2018-12-09T13:34:32Z</time>
      </trkpt>
      <trkpt lat="43.54849" lon="6.44148">
        <ele>202</ele>
        <time>2018-12-09T13:34:39Z</time>
      </trkpt>
      <trkpt lat="43.54824" lon="6.44165">
        <ele>202</ele>
        <time>2018-12-09T13:35:08Z</time>
      </trkpt>
      <trkpt lat="43.54819" lon="6.44168">
        <ele>202</ele>
        <time>2018-12-09T13:35:14Z</time>
      </trkpt>
      <trkpt lat="43.54813" lon="6.44172">
        <ele>202</ele>
        <time>2018-12-09T13:35:19Z</time>
      </trkpt>
      <trkpt lat="43.54808" lon="6.44177">
        <ele>202</ele>
        <time>2018-12-09T13:35:26Z</time>
      </trkpt>
      <trkpt lat="43.54786" lon="6.44195">
        <ele>204</ele>
        <time>2018-12-09T13:35:53Z</time>
      </trkpt>
      <trkpt lat="43.54775" lon="6.44208">
        <ele>204</ele>
        <time>2018-12-09T13:36:23Z</time>
      </trkpt>
      <trkpt lat="43.54769" lon="6.44214">
        <ele>205</ele>
        <time>2018-12-09T13:36:31Z</time>
      </trkpt>
      <trkpt lat="43.54756" lon="6.44225">
        <ele>203</ele>
        <time>2018-12-09T13:36:50Z</time>
      </trkpt>
      <trkpt lat="43.54737" lon="6.44243">
        <ele>203</ele>
        <time>2018-12-09T13:37:13Z</time>
      </trkpt>
      <trkpt lat="43.54732" lon="6.4425">
        <ele>203</ele>
        <time>2018-12-09T13:37:20Z</time>
      </trkpt>
      <trkpt lat="43.54729" lon="6.44258">
        <ele>203</ele>
        <time>2018-12-09T13:37:29Z</time>
      </trkpt>
      <trkpt lat="43.54723" lon="6.44269">
        <ele>203</ele>
        <time>2018-12-09T13:37:40Z</time>
      </trkpt>
      <trkpt lat="43.54715" lon="6.4427">
        <ele>203</ele>
        <time>2018-12-09T13:37:49Z</time>
      </trkpt>
      <trkpt lat="43.54701" lon="6.4426">
        <ele>205</ele>
        <time>2018-12-09T13:38:09Z</time>
      </trkpt>
      <trkpt lat="43.54691" lon="6.44253">
        <ele>204</ele>
        <time>2018-12-09T13:38:23Z</time>
      </trkpt>
      <trkpt lat="43.54675" lon="6.44241">
        <ele>202</ele>
        <time>2018-12-09T13:38:40Z</time>
      </trkpt>
      <trkpt lat="43.54668" lon="6.44234">
        <ele>204</ele>
        <time>2018-12-09T13:38:48Z</time>
      </trkpt>
      <trkpt lat="43.54659" lon="6.4423">
        <ele>203</ele>
        <time>2018-12-09T13:39:01Z</time>
      </trkpt>
      <trkpt lat="43.54655" lon="6.44222">
        <ele>201</ele>
        <time>2018-12-09T13:39:08Z</time>
      </trkpt>
      <trkpt lat="43.5464" lon="6.44206">
        <ele>202</ele>
        <time>2018-12-09T13:39:26Z</time>
      </trkpt>
      <trkpt lat="43.54623" lon="6.44198">
        <ele>202</ele>
        <time>2018-12-09T13:39:43Z</time>
      </trkpt>
      <trkpt lat="43.54615" lon="6.44199">
        <ele>202</ele>
        <time>2018-12-09T13:39:54Z</time>
      </trkpt>
      <trkpt lat="43.54601" lon="6.44207">
        <ele>203</ele>
        <time>2018-12-09T13:40:07Z</time>
      </trkpt>
      <trkpt lat="43.54583" lon="6.44243">
        <ele>205</ele>
        <time>2018-12-09T13:40:38Z</time>
      </trkpt>
      <trkpt lat="43.54581" lon="6.44254">
        <ele>204</ele>
        <time>2018-12-09T13:40:49Z</time>
      </trkpt>
      <trkpt lat="43.54575" lon="6.44276">
        <ele>207</ele>
        <time>2018-12-09T13:41:07Z</time>
      </trkpt>
      <trkpt lat="43.54571" lon="6.44284">
        <ele>206</ele>
        <time>2018-12-09T13:41:13Z</time>
      </trkpt>
      <trkpt lat="43.54568" lon="6.443">
        <ele>207</ele>
        <time>2018-12-09T13:41:26Z</time>
      </trkpt>
      <trkpt lat="43.54556" lon="6.4432">
        <ele>208</ele>
        <time>2018-12-09T13:41:42Z</time>
      </trkpt>
      <trkpt lat="43.5455" lon="6.44342">
        <ele>206</ele>
        <time>2018-12-09T13:42:00Z</time>
      </trkpt>
      <trkpt lat="43.54547" lon="6.44356">
        <ele>206</ele>
        <time>2018-12-09T13:42:12Z</time>
      </trkpt>
      <trkpt lat="43.54545" lon="6.44371">
        <ele>205</ele>
        <time>2018-12-09T13:42:23Z</time>
      </trkpt>
      <trkpt lat="43.54544" lon="6.44383">
        <ele>205</ele>
        <time>2018-12-09T13:42:36Z</time>
      </trkpt>
      <trkpt lat="43.54543" lon="6.44397">
        <ele>206</ele>
        <time>2018-12-09T13:42:47Z</time>
      </trkpt>
      <trkpt lat="43.54545" lon="6.44411">
        <ele>204</ele>
        <time>2018-12-09T13:42:56Z</time>
      </trkpt>
      <trkpt lat="43.54544" lon="6.44424">
        <ele>206</ele>
        <time>2018-12-09T13:43:08Z</time>
      </trkpt>
      <trkpt lat="43.54542" lon="6.44433">
        <ele>208</ele>
        <time>2018-12-09T13:43:16Z</time>
      </trkpt>
      <trkpt lat="43.54545" lon="6.44442">
        <ele>208</ele>
        <time>2018-12-09T13:43:24Z</time>
      </trkpt>
      <trkpt lat="43.54567" lon="6.44459">
        <ele>207</ele>
        <time>2018-12-09T13:43:48Z</time>
      </trkpt>
      <trkpt lat="43.54572" lon="6.44465">
        <ele>207</ele>
        <time>2018-12-09T13:43:58Z</time>
      </trkpt>
      <trkpt lat="43.54581" lon="6.44464">
        <ele>206</ele>
        <time>2018-12-09T13:45:12Z</time>
      </trkpt>
      <trkpt lat="43.54586" lon="6.4446">
        <ele>206</ele>
        <time>2018-12-09T13:45:22Z</time>
      </trkpt>
      <trkpt lat="43.54588" lon="6.44468">
        <ele>204</ele>
        <time>2018-12-09T13:45:28Z</time>
      </trkpt>
      <trkpt lat="43.54591" lon="6.44478">
        <ele>204</ele>
        <time>2018-12-09T13:45:34Z</time>
      </trkpt>
      <trkpt lat="43.546" lon="6.44478">
        <ele>206</ele>
        <time>2018-12-09T13:45:44Z</time>
      </trkpt>
      <trkpt lat="43.5461" lon="6.44476">
        <ele>208</ele>
        <time>2018-12-09T13:45:55Z</time>
      </trkpt>
      <trkpt lat="43.54617" lon="6.44483">
        <ele>208</ele>
        <time>2018-12-09T13:46:06Z</time>
      </trkpt>
      <trkpt lat="43.54623" lon="6.44491">
        <ele>208</ele>
        <time>2018-12-09T13:46:14Z</time>
      </trkpt>
      <trkpt lat="43.54632" lon="6.4452">
        <ele>206</ele>
        <time>2018-12-09T13:46:36Z</time>
      </trkpt>
      <trkpt lat="43.54632" lon="6.44527">
        <ele>206</ele>
        <time>2018-12-09T13:46:41Z</time>
      </trkpt>
      <trkpt lat="43.5463" lon="6.44537">
        <ele>206</ele>
        <time>2018-12-09T13:46:49Z</time>
      </trkpt>
      <trkpt lat="43.54624" lon="6.44545">
        <ele>206</ele>
        <time>2018-12-09T13:46:58Z</time>
      </trkpt>
      <trkpt lat="43.54621" lon="6.44552">
        <ele>205</ele>
        <time>2018-12-09T13:47:04Z</time>
      </trkpt>
      <trkpt lat="43.54617" lon="6.44559">
        <ele>204</ele>
        <time>2018-12-09T13:47:10Z</time>
      </trkpt>
      <trkpt lat="43.54594" lon="6.44573">
        <ele>204</ele>
        <time>2018-12-09T13:47:33Z</time>
      </trkpt>
      <trkpt lat="43.54587" lon="6.44576">
        <ele>205</ele>
        <time>2018-12-09T13:47:40Z</time>
      </trkpt>
      <trkpt lat="43.54579" lon="6.44579">
        <ele>205</ele>
        <time>2018-12-09T13:47:48Z</time>
      </trkpt>
      <trkpt lat="43.54557" lon="6.44607">
        <ele>203</ele>
        <time>2018-12-09T13:48:19Z</time>
      </trkpt>
      <trkpt lat="43.54553" lon="6.44616">
        <ele>203</ele>
        <time>2018-12-09T13:48:26Z</time>
      </trkpt>
      <trkpt lat="43.54548" lon="6.44638">
        <ele>201</ele>
        <time>2018-12-09T13:48:41Z</time>
      </trkpt>
      <trkpt lat="43.54546" lon="6.44647">
        <ele>199</ele>
        <time>2018-12-09T13:48:48Z</time>
      </trkpt>
      <trkpt lat="43.54533" lon="6.44687">
        <ele>202</ele>
        <time>2018-12-09T13:49:19Z</time>
      </trkpt>
      <trkpt lat="43.54529" lon="6.44698">
        <ele>202</ele>
        <time>2018-12-09T13:49:29Z</time>
      </trkpt>
      <trkpt lat="43.54524" lon="6.44735">
        <ele>200</ele>
        <time>2018-12-09T13:50:01Z</time>
      </trkpt>
      <trkpt lat="43.54529" lon="6.44767">
        <ele>200</ele>
        <time>2018-12-09T13:50:24Z</time>
      </trkpt>
      <trkpt lat="43.54532" lon="6.44778">
        <ele>200</ele>
        <time>2018-12-09T13:50:32Z</time>
      </trkpt>
      <trkpt lat="43.54533" lon="6.44789">
        <ele>200</ele>
        <time>2018-12-09T13:50:39Z</time>
      </trkpt>
      <trkpt lat="43.54534" lon="6.448">
        <ele>200</ele>
        <time>2018-12-09T13:50:46Z</time>
      </trkpt>
      <trkpt lat="43.54539" lon="6.44844">
        <ele>202</ele>
        <time>2018-12-09T13:51:18Z</time>
      </trkpt>
      <trkpt lat="43.54541" lon="6.44855">
        <ele>202</ele>
        <time>2018-12-09T13:51:25Z</time>
      </trkpt>
      <trkpt lat="43.54546" lon="6.44866">
        <ele>203</ele>
        <time>2018-12-09T13:51:34Z</time>
      </trkpt>
      <trkpt lat="43.54553" lon="6.44886">
        <ele>203</ele>
        <time>2018-12-09T13:51:51Z</time>
      </trkpt>
      <trkpt lat="43.54564" lon="6.44899">
        <ele>204</ele>
        <time>2018-12-09T13:52:05Z</time>
      </trkpt>
      <trkpt lat="43.54571" lon="6.44902">
        <ele>205</ele>
        <time>2018-12-09T13:52:12Z</time>
      </trkpt>
      <trkpt lat="43.54577" lon="6.44908">
        <ele>208</ele>
        <time>2018-12-09T13:52:25Z</time>
      </trkpt>
      <trkpt lat="43.54589" lon="6.44911">
        <ele>208</ele>
        <time>2018-12-09T13:52:35Z</time>
      </trkpt>
      <trkpt lat="43.54615" lon="6.44919">
        <ele>208</ele>
        <time>2018-12-09T13:52:59Z</time>
      </trkpt>
      <trkpt lat="43.54622" lon="6.44926">
        <ele>209</ele>
        <time>2018-12-09T13:53:06Z</time>
      </trkpt>
      <trkpt lat="43.54625" lon="6.44934">
        <ele>207</ele>
        <time>2018-12-09T13:53:14Z</time>
      </trkpt>
      <trkpt lat="43.54628" lon="6.44944">
        <ele>206</ele>
        <time>2018-12-09T13:53:21Z</time>
      </trkpt>
      <trkpt lat="43.54634" lon="6.44974">
        <ele>202</ele>
        <time>2018-12-09T13:53:43Z</time>
      </trkpt>
      <trkpt lat="43.54636" lon="6.44985">
        <ele>202</ele>
        <time>2018-12-09T13:53:50Z</time>
      </trkpt>
      <trkpt lat="43.54639" lon="6.44997">
        <ele>203</ele>
        <time>2018-12-09T13:53:58Z</time>
      </trkpt>
      <trkpt lat="43.54643" lon="6.45017">
        <ele>203</ele>
        <time>2018-12-09T13:54:11Z</time>
      </trkpt>
      <trkpt lat="43.54643" lon="6.45027">
        <ele>203</ele>
        <time>2018-12-09T13:54:17Z</time>
      </trkpt>
      <trkpt lat="43.54645" lon="6.45037">
        <ele>203</ele>
        <time>2018-12-09T13:54:23Z</time>
      </trkpt>
      <trkpt lat="43.54644" lon="6.45048">
        <ele>203</ele>
        <time>2018-12-09T13:54:32Z</time>
      </trkpt>
      <trkpt lat="43.54644" lon="6.45059">
        <ele>203</ele>
        <time>2018-12-09T13:54:40Z</time>
      </trkpt>
      <trkpt lat="43.54639" lon="6.45094">
        <ele>204</ele>
        <time>2018-12-09T13:55:04Z</time>
      </trkpt>
      <trkpt lat="43.54637" lon="6.45104">
        <ele>204</ele>
        <time>2018-12-09T13:55:10Z</time>
      </trkpt>
      <trkpt lat="43.54632" lon="6.45127">
        <ele>204</ele>
        <time>2018-12-09T13:55:25Z</time>
      </trkpt>
      <trkpt lat="43.54632" lon="6.45148">
        <ele>205</ele>
        <time>2018-12-09T13:55:39Z</time>
      </trkpt>
      <trkpt lat="43.54629" lon="6.45168">
        <ele>203</ele>
        <time>2018-12-09T13:55:56Z</time>
      </trkpt>
      <trkpt lat="43.54623" lon="6.45181">
        <ele>202</ele>
        <time>2018-12-09T13:56:05Z</time>
      </trkpt>
      <trkpt lat="43.54621" lon="6.45195">
        <ele>202</ele>
        <time>2018-12-09T13:56:15Z</time>
      </trkpt>
      <trkpt lat="43.5461" lon="6.4522">
        <ele>202</ele>
        <time>2018-12-09T13:56:35Z</time>
      </trkpt>
      <trkpt lat="43.54601" lon="6.45231">
        <ele>202</ele>
        <time>2018-12-09T13:56:44Z</time>
      </trkpt>
      <trkpt lat="43.54598" lon="6.45245">
        <ele>204</ele>
        <time>2018-12-09T13:57:51Z</time>
      </trkpt>
      <trkpt lat="43.54594" lon="6.45257">
        <ele>206</ele>
        <time>2018-12-09T13:58:35Z</time>
      </trkpt>
      <trkpt lat="43.54572" lon="6.45308">
        <ele>206</ele>
        <time>2018-12-09T13:59:10Z</time>
      </trkpt>
      <trkpt lat="43.54567" lon="6.45322">
        <ele>206</ele>
        <time>2018-12-09T13:59:19Z</time>
      </trkpt>
      <trkpt lat="43.54559" lon="6.4533">
        <ele>206</ele>
        <time>2018-12-09T13:59:30Z</time>
      </trkpt>
      <trkpt lat="43.5455" lon="6.45326">
        <ele>206</ele>
        <time>2018-12-09T13:59:39Z</time>
      </trkpt>
      <trkpt lat="43.54541" lon="6.45323">
        <ele>206</ele>
        <time>2018-12-09T13:59:48Z</time>
      </trkpt>
      <trkpt lat="43.54505" lon="6.45312">
        <ele>207</ele>
        <time>2018-12-09T14:00:23Z</time>
      </trkpt>
      <trkpt lat="43.54498" lon="6.45304">
        <ele>207</ele>
        <time>2018-12-09T14:00:36Z</time>
      </trkpt>
      <trkpt lat="43.54491" lon="6.45297">
        <ele>208</ele>
        <time>2018-12-09T14:00:49Z</time>
      </trkpt>
      <trkpt lat="43.54491" lon="6.45304">
        <ele>210</ele>
        <time>2018-12-09T14:06:39Z</time>
      </trkpt>
      <trkpt lat="43.54497" lon="6.45308">
        <ele>210</ele>
        <time>2018-12-09T14:06:50Z</time>
      </trkpt>
      <trkpt lat="43.54502" lon="6.45302">
        <ele>210</ele>
        <time>2018-12-09T14:06:56Z</time>
      </trkpt>
      <trkpt lat="43.54516" lon="6.45281">
        <ele>209</ele>
        <time>2018-12-09T14:07:14Z</time>
      </trkpt>
      <trkpt lat="43.54522" lon="6.45269">
        <ele>208</ele>
        <time>2018-12-09T14:07:23Z</time>
      </trkpt>
      <trkpt lat="43.54524" lon="6.45256">
        <ele>207</ele>
        <time>2018-12-09T14:07:32Z</time>
      </trkpt>
      <trkpt lat="43.54535" lon="6.45234">
        <ele>207</ele>
        <time>2018-12-09T14:07:49Z</time>
      </trkpt>
      <trkpt lat="43.54538" lon="6.45222">
        <ele>206</ele>
        <time>2018-12-09T14:07:57Z</time>
      </trkpt>
      <trkpt lat="43.54537" lon="6.45213">
        <ele>205</ele>
        <time>2018-12-09T14:08:16Z</time>
      </trkpt>
      <trkpt lat="43.5453" lon="6.45211">
        <ele>206</ele>
        <time>2018-12-09T14:09:37Z</time>
      </trkpt>
      <trkpt lat="43.54507" lon="6.45194">
        <ele>203</ele>
        <time>2018-12-09T14:10:04Z</time>
      </trkpt>
      <trkpt lat="43.54479" lon="6.45187">
        <ele>202</ele>
        <time>2018-12-09T14:10:29Z</time>
      </trkpt>
      <trkpt lat="43.54463" lon="6.452">
        <ele>203</ele>
        <time>2018-12-09T14:10:45Z</time>
      </trkpt>
      <trkpt lat="43.54457" lon="6.45208">
        <ele>203</ele>
        <time>2018-12-09T14:10:52Z</time>
      </trkpt>
      <trkpt lat="43.54428" lon="6.45248">
        <ele>202</ele>
        <time>2018-12-09T14:11:27Z</time>
      </trkpt>
      <trkpt lat="43.54419" lon="6.45269">
        <ele>200</ele>
        <time>2018-12-09T14:11:39Z</time>
      </trkpt>
      <trkpt lat="43.54416" lon="6.45288">
        <ele>199</ele>
        <time>2018-12-09T14:11:51Z</time>
      </trkpt>
      <trkpt lat="43.54418" lon="6.45299">
        <ele>198</ele>
        <time>2018-12-09T14:11:59Z</time>
      </trkpt>
      <trkpt lat="43.54417" lon="6.45309">
        <ele>198</ele>
        <time>2018-12-09T14:12:05Z</time>
      </trkpt>
      <trkpt lat="43.54423" lon="6.45357">
        <ele>198</ele>
        <time>2018-12-09T14:12:38Z</time>
      </trkpt>
      <trkpt lat="43.54424" lon="6.45368">
        <ele>198</ele>
        <time>2018-12-09T14:12:45Z</time>
      </trkpt>
      <trkpt lat="43.54422" lon="6.45382">
        <ele>200</ele>
        <time>2018-12-09T14:12:54Z</time>
      </trkpt>
      <trkpt lat="43.54416" lon="6.45393">
        <ele>200</ele>
        <time>2018-12-09T14:13:01Z</time>
      </trkpt>
      <trkpt lat="43.54407" lon="6.45414">
        <ele>199</ele>
        <time>2018-12-09T14:13:19Z</time>
      </trkpt>
      <trkpt lat="43.54384" lon="6.45452">
        <ele>200</ele>
        <time>2018-12-09T14:13:53Z</time>
      </trkpt>
      <trkpt lat="43.5438" lon="6.45461">
        <ele>199</ele>
        <time>2018-12-09T14:14:00Z</time>
      </trkpt>
      <trkpt lat="43.54376" lon="6.45493">
        <ele>200</ele>
        <time>2018-12-09T14:14:20Z</time>
      </trkpt>
      <trkpt lat="43.5437" lon="6.45528">
        <ele>199</ele>
        <time>2018-12-09T14:14:44Z</time>
      </trkpt>
      <trkpt lat="43.54369" lon="6.45538">
        <ele>200</ele>
        <time>2018-12-09T14:14:53Z</time>
      </trkpt>
      <trkpt lat="43.5437" lon="6.4555">
        <ele>200</ele>
        <time>2018-12-09T14:15:02Z</time>
      </trkpt>
      <trkpt lat="43.54367" lon="6.45559">
        <ele>202</ele>
        <time>2018-12-09T14:15:11Z</time>
      </trkpt>
      <trkpt lat="43.54367" lon="6.4557">
        <ele>202</ele>
        <time>2018-12-09T14:15:19Z</time>
      </trkpt>
      <trkpt lat="43.54366" lon="6.45609">
        <ele>201</ele>
        <time>2018-12-09T14:15:42Z</time>
      </trkpt>
      <trkpt lat="43.5437" lon="6.4564">
        <ele>201</ele>
        <time>2018-12-09T14:16:03Z</time>
      </trkpt>
      <trkpt lat="43.54373" lon="6.4565">
        <ele>201</ele>
        <time>2018-12-09T14:16:12Z</time>
      </trkpt>
      <trkpt lat="43.54374" lon="6.4566">
        <ele>201</ele>
        <time>2018-12-09T14:16:20Z</time>
      </trkpt>
      <trkpt lat="43.54373" lon="6.45669">
        <ele>200</ele>
        <time>2018-12-09T14:16:32Z</time>
      </trkpt>
      <trkpt lat="43.54366" lon="6.45675">
        <ele>201</ele>
        <time>2018-12-09T14:16:41Z</time>
      </trkpt>
      <trkpt lat="43.54363" lon="6.45684">
        <ele>203</ele>
        <time>2018-12-09T14:16:48Z</time>
      </trkpt>
      <trkpt lat="43.54359" lon="6.45693">
        <ele>204</ele>
        <time>2018-12-09T14:16:55Z</time>
      </trkpt>
      <trkpt lat="43.54356" lon="6.45704">
        <ele>202</ele>
        <time>2018-12-09T14:17:02Z</time>
      </trkpt>
      <trkpt lat="43.54356" lon="6.45715">
        <ele>201</ele>
        <time>2018-12-09T14:17:09Z</time>
      </trkpt>
      <trkpt lat="43.54358" lon="6.45724">
        <ele>200</ele>
        <time>2018-12-09T14:17:16Z</time>
      </trkpt>
      <trkpt lat="43.54361" lon="6.45733">
        <ele>201</ele>
        <time>2018-12-09T14:17:23Z</time>
      </trkpt>
      <trkpt lat="43.54369" lon="6.45744">
        <ele>202</ele>
        <time>2018-12-09T14:17:34Z</time>
      </trkpt>
      <trkpt lat="43.54376" lon="6.45755">
        <ele>203</ele>
        <time>2018-12-09T14:17:44Z</time>
      </trkpt>
      <trkpt lat="43.54384" lon="6.45764">
        <ele>203</ele>
        <time>2018-12-09T14:17:52Z</time>
      </trkpt>
      <trkpt lat="43.54389" lon="6.45778">
        <ele>204</ele>
        <time>2018-12-09T14:18:03Z</time>
      </trkpt>
      <trkpt lat="43.54389" lon="6.45792">
        <ele>205</ele>
        <time>2018-12-09T14:18:14Z</time>
      </trkpt>
      <trkpt lat="43.54389" lon="6.45808">
        <ele>202</ele>
        <time>2018-12-09T14:18:28Z</time>
      </trkpt>
      <trkpt lat="43.54398" lon="6.45851">
        <ele>201</ele>
        <time>2018-12-09T14:18:55Z</time>
      </trkpt>
      <trkpt lat="43.54401" lon="6.45868">
        <ele>201</ele>
        <time>2018-12-09T14:19:06Z</time>
      </trkpt>
      <trkpt lat="43.54405" lon="6.45881">
        <ele>200</ele>
        <time>2018-12-09T14:19:14Z</time>
      </trkpt>
      <trkpt lat="43.54421" lon="6.4591">
        <ele>202</ele>
        <time>2018-12-09T14:19:37Z</time>
      </trkpt>
      <trkpt lat="43.5442" lon="6.45925">
        <ele>202</ele>
        <time>2018-12-09T14:19:45Z</time>
      </trkpt>
      <trkpt lat="43.54412" lon="6.45974">
        <ele>200</ele>
        <time>2018-12-09T14:20:17Z</time>
      </trkpt>
      <trkpt lat="43.54409" lon="6.45993">
        <ele>200</ele>
        <time>2018-12-09T14:20:30Z</time>
      </trkpt>
      <trkpt lat="43.54405" lon="6.46002">
        <ele>200</ele>
        <time>2018-12-09T14:20:44Z</time>
      </trkpt>
      <trkpt lat="43.54402" lon="6.46015">
        <ele>202</ele>
        <time>2018-12-09T14:20:54Z</time>
      </trkpt>
      <trkpt lat="43.54391" lon="6.46042">
        <ele>204</ele>
        <time>2018-12-09T14:21:15Z</time>
      </trkpt>
      <trkpt lat="43.54383" lon="6.46048">
        <ele>204</ele>
        <time>2018-12-09T14:21:23Z</time>
      </trkpt>
      <trkpt lat="43.54373" lon="6.46053">
        <ele>204</ele>
        <time>2018-12-09T14:21:33Z</time>
      </trkpt>
      <trkpt lat="43.54357" lon="6.46083">
        <ele>206</ele>
        <time>2018-12-09T14:21:57Z</time>
      </trkpt>
      <trkpt lat="43.5435" lon="6.46102">
        <ele>208</ele>
        <time>2018-12-09T14:22:19Z</time>
      </trkpt>
      <trkpt lat="43.54346" lon="6.46122">
        <ele>208</ele>
        <time>2018-12-09T14:22:28Z</time>
      </trkpt>
      <trkpt lat="43.54338" lon="6.46135">
        <ele>207</ele>
        <time>2018-12-09T14:22:41Z</time>
      </trkpt>
      <trkpt lat="43.54329" lon="6.46165">
        <ele>205</ele>
        <time>2018-12-09T14:23:03Z</time>
      </trkpt>
      <trkpt lat="43.54327" lon="6.4619">
        <ele>203</ele>
        <time>2018-12-09T14:23:20Z</time>
      </trkpt>
      <trkpt lat="43.54327" lon="6.46226">
        <ele>201</ele>
        <time>2018-12-09T14:23:46Z</time>
      </trkpt>
      <trkpt lat="43.54321" lon="6.46234">
        <ele>201</ele>
        <time>2018-12-09T14:23:59Z</time>
      </trkpt>
      <trkpt lat="43.54314" lon="6.46243">
        <ele>202</ele>
        <time>2018-12-09T14:24:09Z</time>
      </trkpt>
      <trkpt lat="43.54307" lon="6.46266">
        <ele>203</ele>
        <time>2018-12-09T14:24:24Z</time>
      </trkpt>
      <trkpt lat="43.54302" lon="6.46276">
        <ele>203</ele>
        <time>2018-12-09T14:24:32Z</time>
      </trkpt>
      <trkpt lat="43.543" lon="6.46286">
        <ele>203</ele>
        <time>2018-12-09T14:24:41Z</time>
      </trkpt>
      <trkpt lat="43.54296" lon="6.46296">
        <ele>203</ele>
        <time>2018-12-09T14:24:48Z</time>
      </trkpt>
      <trkpt lat="43.54291" lon="6.46308">
        <ele>205</ele>
        <time>2018-12-09T14:24:56Z</time>
      </trkpt>
      <trkpt lat="43.54258" lon="6.46344">
        <ele>210</ele>
        <time>2018-12-09T14:25:34Z</time>
      </trkpt>
      <trkpt lat="43.5425" lon="6.46347">
        <ele>210</ele>
        <time>2018-12-09T14:25:43Z</time>
      </trkpt>
      <trkpt lat="43.54242" lon="6.46352">
        <ele>211</ele>
        <time>2018-12-09T14:25:51Z</time>
      </trkpt>
      <trkpt lat="43.54234" lon="6.46352">
        <ele>211</ele>
        <time>2018-12-09T14:25:57Z</time>
      </trkpt>
      <trkpt lat="43.54224" lon="6.46352">
        <ele>211</ele>
        <time>2018-12-09T14:26:06Z</time>
      </trkpt>
      <trkpt lat="43.54215" lon="6.46357">
        <ele>212</ele>
        <time>2018-12-09T14:26:14Z</time>
      </trkpt>
      <trkpt lat="43.54205" lon="6.46358">
        <ele>211</ele>
        <time>2018-12-09T14:26:23Z</time>
      </trkpt>
      <trkpt lat="43.54196" lon="6.4636">
        <ele>209</ele>
        <time>2018-12-09T14:26:34Z</time>
      </trkpt>
      <trkpt lat="43.54189" lon="6.46369">
        <ele>210</ele>
        <time>2018-12-09T14:26:41Z</time>
      </trkpt>
      <trkpt lat="43.54176" lon="6.46382">
        <ele>207</ele>
        <time>2018-12-09T14:26:54Z</time>
      </trkpt>
      <trkpt lat="43.54174" lon="6.46392">
        <ele>206</ele>
        <time>2018-12-09T14:27:09Z</time>
      </trkpt>
      <trkpt lat="43.54175" lon="6.46446">
        <ele>201</ele>
        <time>2018-12-09T14:27:41Z</time>
      </trkpt>
      <trkpt lat="43.54174" lon="6.46454">
        <ele>200</ele>
        <time>2018-12-09T14:27:47Z</time>
      </trkpt>
      <trkpt lat="43.54173" lon="6.4647">
        <ele>199</ele>
        <time>2018-12-09T14:27:57Z</time>
      </trkpt>
      <trkpt lat="43.54172" lon="6.46484">
        <ele>199</ele>
        <time>2018-12-09T14:28:08Z</time>
      </trkpt>
      <trkpt lat="43.5417" lon="6.46491">
        <ele>199</ele>
        <time>2018-12-09T14:28:13Z</time>
      </trkpt>
      <trkpt lat="43.54166" lon="6.46497">
        <ele>199</ele>
        <time>2018-12-09T14:28:17Z</time>
      </trkpt>
      <trkpt lat="43.54162" lon="6.46503">
        <ele>201</ele>
        <time>2018-12-09T14:28:22Z</time>
      </trkpt>
      <trkpt lat="43.54154" lon="6.46509">
        <ele>202</ele>
        <time>2018-12-09T14:28:31Z</time>
      </trkpt>
      <trkpt lat="43.54129" lon="6.46481">
        <ele>206</ele>
        <time>2018-12-09T14:29:15Z</time>
      </trkpt>
      <trkpt lat="43.54118" lon="6.46474">
        <ele>208</ele>
        <time>2018-12-09T14:29:22Z</time>
      </trkpt>
      <trkpt lat="43.54111" lon="6.46482">
        <ele>207</ele>
        <time>2018-12-09T14:29:40Z</time>
      </trkpt>
    </trkseg>
  </trk>
</gpx>